Observation data for Sterling City on 08/14/2019      Previous  Date  Next       Current Mesonet Observations  Soil Data  Daily Summary Page  Observations in Plain Language
KSC1 140500Z 33002KT 26/18 A3002 RMK A01 T02610175  RH  059%=      5-min Rain = 0
KSC1 140501Z 33002KT 26/18 A3002 RMK A01 T02620175  RH  059%=      5-min Rain = 0
KSC1 140502Z 32002KT 26/18 A3002 RMK A01 T02620175  RH  059%=      5-min Rain = 0
KSC1 140503Z 31002KT 26/18 A3002 RMK A01 T02620176  RH  059%=      5-min Rain = 0
KSC1 140504Z 30002KT 26/18 A3002 RMK A01 T02620175  RH  059%=      5-min Rain = 0
KSC1 140505Z 30002KT 26/18 A3002 RMK A01 T02630175  RH  059%=      5-min Rain = 0
KSC1 140506Z 29002KT 26/18 A3002 RMK A01 T02630175  RH  059%=      5-min Rain = 0
KSC1 140507Z 29002KT 26/18 A3002 RMK A01 T02630176  RH  059%=      5-min Rain = 0
KSC1 140508Z 28001KT 26/18 A3002 RMK A01 T02630176  RH  059%=      5-min Rain = 0
KSC1 140509Z 26001KT 26/18 A3002 RMK A01 T02630176  RH  059%=      5-min Rain = 0
KSC1 140510Z 24002KT 26/17 A3002 RMK A01 T02620173  RH  058%=      5-min Rain = 0
KSC1 140511Z 24002KT 26/17 A3002 RMK A01 T02600173  RH  059%=      5-min Rain = 0
KSC1 140512Z 23002KT 26/17 A3002 RMK A01 T02590172  RH  059%=      5-min Rain = 0
KSC1 140513Z 23002KT 26/17 A3002 RMK A01 T02570171  RH  059%=      5-min Rain = 0
KSC1 140514Z 21002KT 26/17 A3002 RMK A01 T02550169  RH  059%=      5-min Rain = 0
KSC1 140515Z 21002KT 25/17 A3002 RMK A01 T02530169  RH  060%=      5-min Rain = 0
KSC1 140516Z 22002KT 25/17 A3002 RMK A01 T02520169  RH  060%=      5-min Rain = 0
KSC1 140517Z 22003KT 25/17 A3002 RMK A01 T02510171  RH  061%=      5-min Rain = 0
KSC1 140518Z 22003KT 25/17 A3002 RMK A01 T02500173  RH  062%=      5-min Rain = 0
KSC1 140519Z 22003KT 25/17 A3002 RMK A01 T02500174  RH  062%=      5-min Rain = 0
KSC1 140520Z 22004KT 25/17 A3002 RMK A01 T02510174  RH  063%=      5-min Rain = 0
KSC1 140521Z 23003KT 25/18 A3002 RMK A01 T02520175  RH  063%=      5-min Rain = 0
KSC1 140522Z 23003KT 25/18 A3002 RMK A01 T02520176  RH  062%=      5-min Rain = 0
KSC1 140523Z 23003KT 25/18 A3002 RMK A01 T02530176  RH  062%=      5-min Rain = 0
KSC1 140524Z 23003KT 25/18 A3002 RMK A01 T02530176  RH  062%=      5-min Rain = 0
KSC1 140525Z 23003KT 25/18 A3002 RMK A01 T02530175  RH  062%=      5-min Rain = 0
KSC1 140526Z 23002KT 25/18 A3002 RMK A01 T02530175  RH  062%=      5-min Rain = 0
KSC1 140527Z 23002KT 25/18 A3002 RMK A01 T02530176  RH  062%=      5-min Rain = 0
KSC1 140528Z 23002KT 25/18 A3002 RMK A01 T02530175  RH  062%=      5-min Rain = 0
KSC1 140529Z 23002KT 25/18 A3002 RMK A01 T02530175  RH  062%=      5-min Rain = 0
KSC1 140530Z 24002KT 25/18 A3002 RMK A01 T02530176  RH  062%=      5-min Rain = 0
KSC1 140531Z 25002KT 25/18 A3002 RMK A01 T02530176  RH  062%=      5-min Rain = 0
KSC1 140532Z 25003KT 25/18 A3002 RMK A01 T02540176  RH  062%=      5-min Rain = 0
KSC1 140533Z 25003KT 25/18 A3002 RMK A01 T02540176  RH  062%=      5-min Rain = 0
KSC1 140534Z 25003KT 25/18 A3002 RMK A01 T02540175  RH  062%=      5-min Rain = 0
KSC1 140535Z 25003KT 25/18 A3002 RMK A01 T02540176  RH  062%=      5-min Rain = 0
KSC1 140536Z 25003KT 25/18 A3002 RMK A01 T02540176  RH  062%=      5-min Rain = 0
KSC1 140537Z 25003KT 25/18 A3002 RMK A01 T02540177  RH  062%=      5-min Rain = 0
KSC1 140538Z 26004KT 25/18 A3002 RMK A01 T02540176  RH  062%=      5-min Rain = 0
KSC1 140539Z 26003KT 26/18 A3002 RMK A01 T02550176  RH  062%=      5-min Rain = 0
KSC1 140540Z 27003KT 26/18 A3002 RMK A01 T02550176  RH  062%=      5-min Rain = 0
KSC1 140541Z 27003KT 26/18 A3002 RMK A01 T02560176  RH  062%=      5-min Rain = 0
KSC1 140542Z 26003KT 26/18 A3002 RMK A01 T02560176  RH  061%=      5-min Rain = 0
KSC1 140543Z 26004KT 26/18 A3002 RMK A01 T02560176  RH  061%=      5-min Rain = 0
KSC1 140544Z 26004KT 26/18 A3002 RMK A01 T02560176  RH  061%=      5-min Rain = 0
KSC1 140545Z 26004KT 26/18 A3002 RMK A01 T02570175  RH  061%=      5-min Rain = 0
KSC1 140546Z 26003KT 26/18 A3002 RMK A01 T02570176  RH  061%=      5-min Rain = 0
KSC1 140547Z 26003KT 26/18 A3002 RMK A01 T02570175  RH  061%=      5-min Rain = 0
KSC1 140548Z 26003KT 26/18 A3003 RMK A01 T02570175  RH  060%=      5-min Rain = 0
KSC1 140549Z 26002KT 26/18 A3003 RMK A01 T02570175  RH  060%=      5-min Rain = 0
KSC1 140550Z 25002KT 26/18 A3003 RMK A01 T02570175  RH  060%=      5-min Rain = 0
KSC1 140551Z 26003KT 26/18 A3003 RMK A01 T02570176  RH  061%=      5-min Rain = 0
KSC1 140552Z 26003KT 26/18 A3003 RMK A01 T02580176  RH  060%=      5-min Rain = 0
KSC1 140553Z 25003KT 26/18 A3003 RMK A01 T02590176  RH  060%=      5-min Rain = 0
KSC1 140554Z 25003KT 26/18 A3003 RMK A01 T02600176  RH  060%=      5-min Rain = 0
KSC1 140555Z 25003KT 26/18 A3003 RMK A01 T02600176  RH  060%=      5-min Rain = 0
KSC1 140556Z 24003KT 26/18 A3003 RMK A01 T02610176  RH  060%=      5-min Rain = 0
KSC1 140557Z 25003KT 26/18 A3003 RMK A01 T02620176  RH  059%=      5-min Rain = 0
KSC1 140558Z 25003KT 26/18 A3003 RMK A01 T02610176  RH  059%=      5-min Rain = 0
KSC1 140559Z 26003KT 26/18 A3003 RMK A01 T02610176  RH  059%=      5-min Rain = 0
KSC1 140600Z 26003KT 26/18 A3003 RMK A01 T02610176  RH  059%=      5-min Rain = 0
KSC1 140601Z 26003KT 26/18 A3003 RMK A01 T02610175  RH  059%=      5-min Rain = 0
KSC1 140602Z 27003KT 26/18 A3003 RMK A01 T02610176  RH  059%=      5-min Rain = 0
KSC1 140603Z 27003KT 26/18 A3003 RMK A01 T02610175  RH  059%=      5-min Rain = 0
KSC1 140604Z 27003KT 26/18 A3003 RMK A01 T02610175  RH  059%=      5-min Rain = 0
KSC1 140605Z 28003KT 26/17 A3003 RMK A01 T02610174  RH  059%=      5-min Rain = 0
KSC1 140606Z 27003KT 26/17 A3003 RMK A01 T02620174  RH  059%=      5-min Rain = 0
KSC1 140607Z 28003KT 26/18 A3003 RMK A01 T02620175  RH  059%=      5-min Rain = 0
KSC1 140608Z 29003KT 26/18 A3003 RMK A01 T02610175  RH  059%=      5-min Rain = 0
KSC1 140609Z 30002KT 26/17 A3003 RMK A01 T02610174  RH  059%=      5-min Rain = 0
KSC1 140610Z 30003KT 26/18 A3003 RMK A01 T02610175  RH  059%=      5-min Rain = 0
KSC1 140611Z 30002KT 26/18 A3003 RMK A01 T02600175  RH  059%=      5-min Rain = 0
KSC1 140612Z 29002KT 26/18 A3003 RMK A01 T02600175  RH  059%=      5-min Rain = 0
KSC1 140613Z 30002KT 26/18 A3003 RMK A01 T02610175  RH  059%=      5-min Rain = 0
KSC1 140614Z 31002KT 26/17 A3003 RMK A01 T02610173  RH  058%=      5-min Rain = 0
KSC1 140615Z 30003KT 26/17 A3003 RMK A01 T02600174  RH  059%=      5-min Rain = 0
KSC1 140616Z 29003KT 26/18 A3003 RMK A01 T02600175  RH  060%=      5-min Rain = 0
KSC1 140617Z 30003KT 26/18 A3003 RMK A01 T02600175  RH  059%=      5-min Rain = 0
KSC1 140618Z 29003KT 26/18 A3003 RMK A01 T02600175  RH  059%=      5-min Rain = 0
KSC1 140619Z 31002KT 26/17 A3003 RMK A01 T02600174  RH  059%=      5-min Rain = 0
KSC1 140620Z 32001KT 26/17 A3003 RMK A01 T02590170  RH  058%=      5-min Rain = 0
KSC1 140621Z 31001KT 26/17 A3003 RMK A01 T02560170  RH  059%=      5-min Rain = 0
KSC1 140622Z 30001KT 25/17 A3003 RMK A01 T02530170  RH  060%=      5-min Rain = 0
KSC1 140623Z 29001KT 25/17 A3003 RMK A01 T02520171  RH  061%=      5-min Rain = 0
KSC1 140624Z 30002KT 25/17 A3003 RMK A01 T02510170  RH  061%=      5-min Rain = 0
KSC1 140625Z 30001KT 25/17 A3003 RMK A01 T02490170  RH  061%=      5-min Rain = 0
KSC1 140626Z 30001KT 25/17 A3003 RMK A01 T02480171  RH  062%=      5-min Rain = 0
KSC1 140627Z 30001KT 25/17 A3003 RMK A01 T02480171  RH  062%=      5-min Rain = 0
KSC1 140628Z 30001KT 25/17 A3003 RMK A01 T02470171  RH  062%=      5-min Rain = 0
KSC1 140629Z 30000KT 25/17 A3003 RMK A01 T02460170  RH  062%=      5-min Rain = 0
KSC1 140630Z 00000KT 25/17 A3003 RMK A01 T02460169  RH  062%=      5-min Rain = 0
KSC1 140631Z 00000KT 25/17 A3003 RMK A01 T02450169  RH  062%=      5-min Rain = 0
KSC1 140632Z 00000KT 24/17 A3003 RMK A01 T02440169  RH  063%=      5-min Rain = 0
KSC1 140633Z 27000KT 24/17 A3003 RMK A01 T02440170  RH  063%=      5-min Rain = 0
KSC1 140634Z 27001KT 24/17 A3003 RMK A01 T02430170  RH  063%=      5-min Rain = 0
KSC1 140635Z 27001KT 24/17 A3003 RMK A01 T02430171  RH  064%=      5-min Rain = 0
KSC1 140636Z 26002KT 24/17 A3003 RMK A01 T02430171  RH  064%=      5-min Rain = 0
KSC1 140637Z 25002KT 24/17 A3003 RMK A01 T02430172  RH  064%=      5-min Rain = 0
KSC1 140638Z 25002KT 24/17 A3003 RMK A01 T02430172  RH  065%=      5-min Rain = 0
KSC1 140639Z 24003KT 24/17 A3003 RMK A01 T02420171  RH  065%=      5-min Rain = 0
KSC1 140640Z 25003KT 24/17 A3003 RMK A01 T02420171  RH  065%=      5-min Rain = 0
KSC1 140641Z 25003KT 24/17 A3003 RMK A01 T02410171  RH  065%=      5-min Rain = 0
KSC1 140642Z 25004KT 24/17 A3003 RMK A01 T02410172  RH  065%=      5-min Rain = 0
KSC1 140643Z 26004KT 24/17 A3003 RMK A01 T02420174  RH  066%=      5-min Rain = 0
KSC1 140644Z 26004KT 24/18 A3003 RMK A01 T02430177  RH  067%=      5-min Rain = 0
KSC1 140645Z 27004KT 25/18 A3003 RMK A01 T02450177  RH  066%=      5-min Rain = 0
KSC1 140646Z 27003KT 25/18 A3003 RMK A01 T02470177  RH  065%=      5-min Rain = 0
KSC1 140647Z 27003KT 25/18 A3003 RMK A01 T02480178  RH  065%=      5-min Rain = 0
KSC1 140648Z 27003KT 25/18 A3003 RMK A01 T02490180  RH  065%=      5-min Rain = 0
KSC1 140649Z 27003KT 25/18 A3003 RMK A01 T02510180  RH  065%=      5-min Rain = 0
KSC1 140650Z 26002KT 25/18 A3003 RMK A01 T02520181  RH  065%=      5-min Rain = 0
KSC1 140651Z 26003KT 25/18 A3003 RMK A01 T02520182  RH  065%=      5-min Rain = 0
KSC1 140652Z 26003KT 25/18 A3003 RMK A01 T02530183  RH  065%=      5-min Rain = 0
KSC1 140653Z 25003KT 25/18 A3003 RMK A01 T02540183  RH  065%=      5-min Rain = 0
KSC1 140654Z 25003KT 25/18 A3003 RMK A01 T02540183  RH  065%=      5-min Rain = 0
KSC1 140655Z 25003KT 26/18 A3003 RMK A01 T02550183  RH  064%=      5-min Rain = 0
KSC1 140656Z 26003KT 26/18 A3003 RMK A01 T02550183  RH  064%=      5-min Rain = 0
KSC1 140657Z 26003KT 26/18 A3003 RMK A01 T02550183  RH  064%=      5-min Rain = 0
KSC1 140658Z 27003KT 26/18 A3003 RMK A01 T02550183  RH  064%=      5-min Rain = 0
KSC1 140659Z 27003KT 26/18 A3004 RMK A01 T02550184  RH  064%=      5-min Rain = 0
KSC1 140700Z 27003KT 26/18 A3004 RMK A01 T02550182  RH  064%=      5-min Rain = 0
KSC1 140701Z 27003KT 25/18 A3004 RMK A01 T02540181  RH  064%=      5-min Rain = 0
KSC1 140702Z 27003KT 25/18 A3004 RMK A01 T02530181  RH  064%=      5-min Rain = 0
KSC1 140703Z 28003KT 25/18 A3004 RMK A01 T02530183  RH  065%=      5-min Rain = 0
KSC1 140704Z 28003KT 25/18 A3004 RMK A01 T02530184  RH  066%=      5-min Rain = 0
KSC1 140705Z 29003KT 25/19 A3003 RMK A01 T02530185  RH  066%=      5-min Rain = 0
KSC1 140706Z 29003KT 25/18 A3003 RMK A01 T02530184  RH  065%=      5-min Rain = 0
KSC1 140707Z 29004KT 25/19 A3003 RMK A01 T02540185  RH  066%=      5-min Rain = 0
KSC1 140708Z 30004KT 26/19 A3003 RMK A01 T02550187  RH  066%=      5-min Rain = 0
KSC1 140709Z 30003KT 26/19 A3003 RMK A01 T02560188  RH  066%=      5-min Rain = 0
KSC1 140710Z 31003KT 26/19 A3003 RMK A01 T02580188  RH  065%=      5-min Rain = 0
KSC1 140711Z 31003KT 26/19 A3003 RMK A01 T02590189  RH  065%=      5-min Rain = 0
KSC1 140712Z 31003KT 26/19 A3003 RMK A01 T02600189  RH  065%=      5-min Rain = 0
KSC1 140713Z 32003KT 26/19 A3003 RMK A01 T02610189  RH  065%=      5-min Rain = 0
KSC1 140714Z 33003KT 26/19 A3003 RMK A01 T02610190  RH  065%=      5-min Rain = 0
KSC1 140715Z 33003KT 26/19 A3003 RMK A01 T02620190  RH  065%=      5-min Rain = 0
KSC1 140716Z 33003KT 26/19 A3003 RMK A01 T02620191  RH  065%=      5-min Rain = 0
KSC1 140717Z 33003KT 26/19 A3003 RMK A01 T02620190  RH  065%=      5-min Rain = 0
KSC1 140718Z 34003KT 26/19 A3002 RMK A01 T02620191  RH  065%=      5-min Rain = 0
KSC1 140719Z 36003KT 26/19 A3002 RMK A01 T02620191  RH  065%=      5-min Rain = 0
KSC1 140720Z 00002KT 26/19 A3002 RMK A01 T02620190  RH  064%=      5-min Rain = 0
KSC1 140721Z 00003KT 26/19 A3002 RMK A01 T02600187  RH  064%=      5-min Rain = 0
KSC1 140722Z 00003KT 26/19 A3002 RMK A01 T02590186  RH  064%=      5-min Rain = 0
KSC1 140723Z 00002KT 26/18 A3002 RMK A01 T02570184  RH  064%=      5-min Rain = 0
KSC1 140724Z 36002KT 26/18 A3002 RMK A01 T02550182  RH  064%=      5-min Rain = 0
KSC1 140725Z 36002KT 25/18 A3002 RMK A01 T02530181  RH  064%=      5-min Rain = 0
KSC1 140726Z 00002KT 25/18 A3002 RMK A01 T02510178  RH  064%=      5-min Rain = 0
KSC1 140727Z 01001KT 25/18 A3002 RMK A01 T02480177  RH  064%=      5-min Rain = 0
KSC1 140728Z 00001KT 25/18 A3002 RMK A01 T02460177  RH  065%=      5-min Rain = 0
KSC1 140729Z 33001KT 25/18 A3002 RMK A01 T02450178  RH  066%=      5-min Rain = 0
KSC1 140730Z 33001KT 24/18 A3002 RMK A01 T02440179  RH  067%=      5-min Rain = 0
KSC1 140731Z 32001KT 24/18 A3002 RMK A01 T02430180  RH  068%=      5-min Rain = 0
KSC1 140732Z 32001KT 24/18 A3002 RMK A01 T02430181  RH  069%=      5-min Rain = 0
KSC1 140733Z 32001KT 24/18 A3002 RMK A01 T02420181  RH  069%=      5-min Rain = 0
KSC1 140734Z 32002KT 24/18 A3002 RMK A01 T02410180  RH  068%=      5-min Rain = 0
KSC1 140735Z 33001KT 24/18 A3002 RMK A01 T02410182  RH  070%=      5-min Rain = 0
KSC1 140736Z 33001KT 24/18 A3002 RMK A01 T02410182  RH  070%=      5-min Rain = 0
KSC1 140737Z 33000KT 24/18 A3002 RMK A01 T02400181  RH  070%=      5-min Rain = 0
KSC1 140738Z 00000KT 24/18 A3002 RMK A01 T02390180  RH  069%=      5-min Rain = 0
KSC1 140739Z 00000KT 24/18 A3002 RMK A01 T02380178  RH  069%=      5-min Rain = 0
KSC1 140740Z 20001KT 24/18 A3002 RMK A01 T02370180  RH  070%=      5-min Rain = 0
KSC1 140741Z 20001KT 24/18 A3002 RMK A01 T02360182  RH  071%=      5-min Rain = 0
KSC1 140742Z 21001KT 24/18 A3002 RMK A01 T02360183  RH  072%=      5-min Rain = 0
KSC1 140743Z 24001KT 24/18 A3002 RMK A01 T02370184  RH  072%=      5-min Rain = 0
KSC1 140744Z 26001KT 24/18 A3002 RMK A01 T02380183  RH  071%=      5-min Rain = 0
KSC1 140745Z 28001KT 24/18 A3002 RMK A01 T02380182  RH  071%=      5-min Rain = 0
KSC1 140746Z 27001KT 24/18 A3002 RMK A01 T02380181  RH  071%=      5-min Rain = 0
KSC1 140747Z 28002KT 24/19 A3002 RMK A01 T02370185  RH  073%=      5-min Rain = 0
KSC1 140748Z 29002KT 24/19 A3002 RMK A01 T02370185  RH  073%=      5-min Rain = 0
KSC1 140749Z 30002KT 24/19 A3002 RMK A01 T02380186  RH  073%=      5-min Rain = 0
KSC1 140750Z 30003KT 24/19 A3002 RMK A01 T02390187  RH  072%=      5-min Rain = 0
KSC1 140751Z 30003KT 24/19 A3002 RMK A01 T02410185  RH  071%=      5-min Rain = 0
KSC1 140752Z 30004KT 24/19 A3002 RMK A01 T02410187  RH  072%=      5-min Rain = 0
KSC1 140753Z 31004KT 24/19 A3002 RMK A01 T02420188  RH  071%=      5-min Rain = 0
KSC1 140754Z 31004KT 24/19 A3002 RMK A01 T02440188  RH  071%=      5-min Rain = 0
KSC1 140755Z 32004KT 25/19 A3002 RMK A01 T02450187  RH  070%=      5-min Rain = 0
KSC1 140756Z 32004KT 25/19 A3002 RMK A01 T02450188  RH  070%=      5-min Rain = 0
KSC1 140757Z 32004KT 25/19 A3002 RMK A01 T02460188  RH  070%=      5-min Rain = 0
KSC1 140758Z 32003KT 25/19 A3002 RMK A01 T02460188  RH  070%=      5-min Rain = 0
KSC1 140759Z 32002KT 25/19 A3002 RMK A01 T02460188  RH  070%=      5-min Rain = 0
KSC1 140800Z 32001KT 25/19 A3002 RMK A01 T02460188  RH  070%=      5-min Rain = 0
KSC1 140801Z 31000KT 25/19 A3002 RMK A01 T02460188  RH  070%=      5-min Rain = 0
KSC1 140802Z 21000KT 25/19 A3003 RMK A01 T02460187  RH  069%=      5-min Rain = 0
KSC1 140803Z 19001KT 25/18 A3003 RMK A01 T02450184  RH  069%=      5-min Rain = 0
KSC1 140804Z 18002KT 24/18 A3003 RMK A01 T02420183  RH  070%=      5-min Rain = 0
KSC1 140805Z 17003KT 24/19 A3003 RMK A01 T02410186  RH  071%=      5-min Rain = 0
KSC1 140806Z 18003KT 24/19 A3003 RMK A01 T02400188  RH  072%=      5-min Rain = 0
KSC1 140807Z 18003KT 24/19 A3003 RMK A01 T02400188  RH  073%=      5-min Rain = 0
KSC1 140808Z 19002KT 24/19 A3003 RMK A01 T02390187  RH  073%=      5-min Rain = 0
KSC1 140809Z 21002KT 24/19 A3003 RMK A01 T02390188  RH  073%=      5-min Rain = 0
KSC1 140810Z 21001KT 24/19 A3003 RMK A01 T02390188  RH  073%=      5-min Rain = 0
KSC1 140811Z 25001KT 24/19 A3003 RMK A01 T02390188  RH  073%=      5-min Rain = 0
KSC1 140812Z 25001KT 24/19 A3003 RMK A01 T02390189  RH  074%=      5-min Rain = 0
KSC1 140813Z 27001KT 24/19 A3003 RMK A01 T02390189  RH  074%=      5-min Rain = 0
KSC1 140814Z 28001KT 24/19 A3003 RMK A01 T02390189  RH  074%=      5-min Rain = 0
KSC1 140815Z 29001KT 24/19 A3003 RMK A01 T02390190  RH  074%=      5-min Rain = 0
KSC1 140816Z 29001KT 24/19 A3003 RMK A01 T02390186  RH  072%=      5-min Rain = 0
KSC1 140817Z 00000KT 24/18 A3003 RMK A01 T02390184  RH  071%=      5-min Rain = 0
KSC1 140818Z 27001KT 24/18 A3003 RMK A01 T02380184  RH  072%=      5-min Rain = 0
KSC1 140819Z 26001KT 24/18 A3003 RMK A01 T02360184  RH  072%=      5-min Rain = 0
KSC1 140820Z 25000KT 24/18 A3003 RMK A01 T02350183  RH  072%=      5-min Rain = 0
KSC1 140821Z 24001KT 24/19 A3003 RMK A01 T02350186  RH  074%=      5-min Rain = 0
KSC1 140822Z 22001KT 24/19 A3003 RMK A01 T02350188  RH  075%=      5-min Rain = 0
KSC1 140823Z 21001KT 24/19 A3003 RMK A01 T02360189  RH  075%=      5-min Rain = 0
KSC1 140824Z 19001KT 24/19 A3003 RMK A01 T02360187  RH  074%=      5-min Rain = 0
KSC1 140825Z 19002KT 24/19 A3003 RMK A01 T02360185  RH  073%=      5-min Rain = 0
KSC1 140826Z 19002KT 23/18 A3003 RMK A01 T02340184  RH  073%=      5-min Rain = 0
KSC1 140827Z 18002KT 23/19 A3003 RMK A01 T02330185  RH  074%=      5-min Rain = 0
KSC1 140828Z 18002KT 23/19 A3003 RMK A01 T02330187  RH  075%=      5-min Rain = 0
KSC1 140829Z 17002KT 23/19 A3003 RMK A01 T02330187  RH  076%=      5-min Rain = 0
KSC1 140830Z 19002KT 23/19 A3003 RMK A01 T02330189  RH  076%=      5-min Rain = 0
KSC1 140831Z 19001KT 23/19 A3003 RMK A01 T02340189  RH  076%=      5-min Rain = 0
KSC1 140832Z 21001KT 24/19 A3003 RMK A01 T02350190  RH  076%=      5-min Rain = 0
KSC1 140833Z 21001KT 24/19 A3003 RMK A01 T02350186  RH  074%=      5-min Rain = 0
KSC1 140834Z 24001KT 24/19 A3003 RMK A01 T02350189  RH  075%=      5-min Rain = 0
KSC1 140835Z 28002KT 24/19 A3003 RMK A01 T02350190  RH  076%=      5-min Rain = 0
KSC1 140836Z 27002KT 24/19 A3003 RMK A01 T02360191  RH  076%=      5-min Rain = 0
KSC1 140837Z 27002KT 24/19 A3003 RMK A01 T02370188  RH  074%=      5-min Rain = 0
KSC1 140838Z 27002KT 24/19 A3003 RMK A01 T02370189  RH  075%=      5-min Rain = 0
KSC1 140839Z 26003KT 24/19 A3003 RMK A01 T02380189  RH  074%=      5-min Rain = 0
KSC1 140840Z 27003KT 24/19 A3003 RMK A01 T02380190  RH  075%=      5-min Rain = 0
KSC1 140841Z 26003KT 24/19 A3003 RMK A01 T02380191  RH  075%=      5-min Rain = 0
KSC1 140842Z 27003KT 24/19 A3003 RMK A01 T02390189  RH  074%=      5-min Rain = 0
KSC1 140843Z 27003KT 24/19 A3003 RMK A01 T02390189  RH  074%=      5-min Rain = 0
KSC1 140844Z 27003KT 24/19 A3003 RMK A01 T02390189  RH  073%=      5-min Rain = 0
KSC1 140845Z 28003KT 24/19 A3003 RMK A01 T02390190  RH  074%=      5-min Rain = 0
KSC1 140846Z 28003KT 24/19 A3003 RMK A01 T02390191  RH  074%=      5-min Rain = 0
KSC1 140847Z 28002KT 24/19 A3003 RMK A01 T02390189  RH  074%=      5-min Rain = 0
KSC1 140848Z 27002KT 24/19 A3003 RMK A01 T02380189  RH  074%=      5-min Rain = 0
KSC1 140849Z 27002KT 24/19 A3003 RMK A01 T02390190  RH  074%=      5-min Rain = 0
KSC1 140850Z 26002KT 24/19 A3003 RMK A01 T02390189  RH  074%=      5-min Rain = 0
KSC1 140851Z 26001KT 24/19 A3003 RMK A01 T02380187  RH  073%=      5-min Rain = 0
KSC1 140852Z 28002KT 24/19 A3002 RMK A01 T02370186  RH  073%=      5-min Rain = 0
KSC1 140853Z 27001KT 24/19 A3002 RMK A01 T02370188  RH  074%=      5-min Rain = 0
KSC1 140854Z 27002KT 24/19 A3003 RMK A01 T02360190  RH  075%=      5-min Rain = 0
KSC1 140855Z 27002KT 24/19 A3003 RMK A01 T02360189  RH  075%=      5-min Rain = 0
KSC1 140856Z 27002KT 24/19 A3003 RMK A01 T02360189  RH  075%=      5-min Rain = 0
KSC1 140857Z 28002KT 24/19 A3003 RMK A01 T02360190  RH  075%=      5-min Rain = 0
KSC1 140858Z 28002KT 24/19 A3003 RMK A01 T02350188  RH  075%=      5-min Rain = 0
KSC1 140859Z 29002KT 24/19 A3003 RMK A01 T02350187  RH  075%=      5-min Rain = 0
KSC1 140900Z 29002KT 23/19 A3003 RMK A01 T02340189  RH  075%=      5-min Rain = 0
KSC1 140901Z 29002KT 23/19 A3003 RMK A01 T02330187  RH  075%=      5-min Rain = 0
KSC1 140902Z 29002KT 23/19 A3003 RMK A01 T02330187  RH  075%=      5-min Rain = 0
KSC1 140903Z 29001KT 23/19 A3003 RMK A01 T02330188  RH  076%=      5-min Rain = 0
KSC1 140904Z 28001KT 23/19 A3003 RMK A01 T02320186  RH  075%=      5-min Rain = 0
KSC1 140905Z 28002KT 23/18 A3003 RMK A01 T02310183  RH  074%=      5-min Rain = 0
KSC1 140906Z 29002KT 23/18 A3003 RMK A01 T02300181  RH  074%=      5-min Rain = 0
KSC1 140907Z 29002KT 23/19 A3003 RMK A01 T02300186  RH  076%=      5-min Rain = 0
KSC1 140908Z 30002KT 23/19 A3003 RMK A01 T02290186  RH  076%=      5-min Rain = 0
KSC1 140909Z 29002KT 23/18 A3003 RMK A01 T02290184  RH  076%=      5-min Rain = 0
KSC1 140910Z 30002KT 23/19 A3003 RMK A01 T02280187  RH  077%=      5-min Rain = 0
KSC1 140911Z 29002KT 23/19 A3003 RMK A01 T02290186  RH  077%=      5-min Rain = 0
KSC1 140912Z 30003KT 23/19 A3003 RMK A01 T02290187  RH  077%=      5-min Rain = 0
KSC1 140913Z 30003KT 23/19 A3003 RMK A01 T02290186  RH  077%=      5-min Rain = 0
KSC1 140914Z 29003KT 23/19 A3003 RMK A01 T02300189  RH  077%=      5-min Rain = 0
KSC1 140915Z 29002KT 23/19 A3003 RMK A01 T02320188  RH  077%=      5-min Rain = 0
KSC1 140916Z 29002KT 23/19 A3003 RMK A01 T02320188  RH  076%=      5-min Rain = 0
KSC1 140917Z 29002KT 23/19 A3003 RMK A01 T02330188  RH  076%=      5-min Rain = 0
KSC1 140918Z 29002KT 23/19 A3003 RMK A01 T02330187  RH  076%=      5-min Rain = 0
KSC1 140919Z 30003KT 23/19 A3003 RMK A01 T02330189  RH  076%=      5-min Rain = 0
KSC1 140920Z 31003KT 23/19 A3003 RMK A01 T02330188  RH  076%=      5-min Rain = 0
KSC1 140921Z 32003KT 23/19 A3003 RMK A01 T02330189  RH  076%=      5-min Rain = 0
KSC1 140922Z 31003KT 23/19 A3003 RMK A01 T02340190  RH  076%=      5-min Rain = 0
KSC1 140923Z 32003KT 24/19 A3003 RMK A01 T02350190  RH  076%=      5-min Rain = 0
KSC1 140924Z 32003KT 24/19 A3003 RMK A01 T02350190  RH  076%=      5-min Rain = 0
KSC1 140925Z 31003KT 24/19 A3003 RMK A01 T02360190  RH  075%=      5-min Rain = 0
KSC1 140926Z 31003KT 24/19 A3003 RMK A01 T02360189  RH  075%=      5-min Rain = 0
KSC1 140927Z 31003KT 24/19 A3003 RMK A01 T02360190  RH  075%=      5-min Rain = 0
KSC1 140928Z 31003KT 24/19 A3003 RMK A01 T02360190  RH  075%=      5-min Rain = 0
KSC1 140929Z 31003KT 24/19 A3003 RMK A01 T02360190  RH  075%=      5-min Rain = 0
KSC1 140930Z 31003KT 24/19 A3003 RMK A01 T02360190  RH  075%=      5-min Rain = 0
KSC1 140931Z 31003KT 24/19 A3003 RMK A01 T02360190  RH  076%=      5-min Rain = 0
KSC1 140932Z 31003KT 24/19 A3003 RMK A01 T02360191  RH  076%=      5-min Rain = 0
KSC1 140933Z 31003KT 24/19 A3003 RMK A01 T02360190  RH  075%=      5-min Rain = 0
KSC1 140934Z 31004KT 24/19 A3003 RMK A01 T02360190  RH  076%=      5-min Rain = 0
KSC1 140935Z 31004KT 24/19 A3003 RMK A01 T02360191  RH  076%=      5-min Rain = 0
KSC1 140936Z 31004KT 24/19 A3003 RMK A01 T02360191  RH  076%=      5-min Rain = 0
KSC1 140937Z 32004KT 24/19 A3003 RMK A01 T02360191  RH  076%=      5-min Rain = 0
KSC1 140938Z 32004KT 24/19 A3003 RMK A01 T02360191  RH  076%=      5-min Rain = 0
KSC1 140939Z 32005KT 24/19 A3003 RMK A01 T02360191  RH  076%=      5-min Rain = 0
KSC1 140940Z 32004KT 24/19 A3003 RMK A01 T02360191  RH  076%=      5-min Rain = 0
KSC1 140941Z 32004KT 24/19 A3003 RMK A01 T02360191  RH  076%=      5-min Rain = 0
KSC1 140942Z 33004KT 24/19 A3003 RMK A01 T02360191  RH  076%=      5-min Rain = 0
KSC1 140943Z 33003KT 24/19 A3003 RMK A01 T02370192  RH  076%=      5-min Rain = 0
KSC1 140944Z 33004KT 24/19 A3003 RMK A01 T02370192  RH  076%=      5-min Rain = 0
KSC1 140945Z 32004KT 24/19 A3003 RMK A01 T02370192  RH  076%=      5-min Rain = 0
KSC1 140946Z 32004KT 24/19 A3003 RMK A01 T02370192  RH  076%=      5-min Rain = 0
KSC1 140947Z 32003KT 24/19 A3003 RMK A01 T02370193  RH  076%=      5-min Rain = 0
KSC1 140948Z 32003KT 24/19 A3003 RMK A01 T02370193  RH  076%=      5-min Rain = 0
KSC1 140949Z 31002KT 24/19 A3002 RMK A01 T02380193  RH  076%=      5-min Rain = 0
KSC1 140950Z 30002KT 24/19 A3002 RMK A01 T02380193  RH  076%=      5-min Rain = 0
KSC1 140951Z 29002KT 24/19 A3002 RMK A01 T02380193  RH  076%=      5-min Rain = 0
KSC1 140952Z 29002KT 24/19 A3002 RMK A01 T02380193  RH  076%=      5-min Rain = 0
KSC1 140953Z 29003KT 24/19 A3002 RMK A01 T02380194  RH  076%=      5-min Rain = 0
KSC1 140954Z 30002KT 24/19 A3002 RMK A01 T02380194  RH  077%=      5-min Rain = 0
KSC1 140955Z 30003KT 24/20 A3002 RMK A01 T02380195  RH  077%=      5-min Rain = 0
KSC1 140956Z 30003KT 24/20 A3002 RMK A01 T02380195  RH  077%=      5-min Rain = 0
KSC1 140957Z 30003KT 24/20 A3002 RMK A01 T02380195  RH  077%=      5-min Rain = 0
KSC1 140958Z 31003KT 24/20 A3002 RMK A01 T02380195  RH  077%=      5-min Rain = 0
KSC1 140959Z 31003KT 24/20 A3002 RMK A01 T02370195  RH  077%=      5-min Rain = 0
KSC1 141000Z 31004KT 24/20 A3002 RMK A01 T02370195  RH  077%=      5-min Rain = 0
KSC1 141001Z 32003KT 24/20 A3002 RMK A01 T02370195  RH  077%=      5-min Rain = 0
KSC1 141002Z 32004KT 24/20 A3002 RMK A01 T02370195  RH  077%=      5-min Rain = 0
KSC1 141003Z 32004KT 24/20 A3002 RMK A01 T02370195  RH  077%=      5-min Rain = 0
KSC1 141004Z 32004KT 24/20 A3002 RMK A01 T02370195  RH  077%=      5-min Rain = 0
KSC1 141005Z 32004KT 24/20 A3002 RMK A01 T02370195  RH  077%=      5-min Rain = 0
KSC1 141006Z 32003KT 24/20 A3002 RMK A01 T02370195  RH  077%=      5-min Rain = 0
KSC1 141007Z 33003KT 24/20 A3002 RMK A01 T02370195  RH  077%=      5-min Rain = 0
KSC1 141008Z 33003KT 24/20 A3002 RMK A01 T02370195  RH  077%=      5-min Rain = 0
KSC1 141009Z 32003KT 24/20 A3002 RMK A01 T02370195  RH  077%=      5-min Rain = 0
KSC1 141010Z 32003KT 24/20 A3002 RMK A01 T02370196  RH  077%=      5-min Rain = 0
KSC1 141011Z 33003KT 24/20 A3002 RMK A01 T02370195  RH  077%=      5-min Rain = 0
KSC1 141012Z 33004KT 24/20 A3002 RMK A01 T02370196  RH  077%=      5-min Rain = 0
KSC1 141013Z 32004KT 24/20 A3002 RMK A01 T02370196  RH  078%=      5-min Rain = 0
KSC1 141014Z 32003KT 24/20 A3002 RMK A01 T02370196  RH  077%=      5-min Rain = 0
KSC1 141015Z 32003KT 24/20 A3002 RMK A01 T02370196  RH  078%=      5-min Rain = 0
KSC1 141016Z 32003KT 24/20 A3002 RMK A01 T02370196  RH  078%=      5-min Rain = 0
KSC1 141017Z 31003KT 24/20 A3002 RMK A01 T02370197  RH  078%=      5-min Rain = 0
KSC1 141018Z 31004KT 24/20 A3002 RMK A01 T02370196  RH  078%=      5-min Rain = 0
KSC1 141019Z 32004KT 24/20 A3002 RMK A01 T02370196  RH  078%=      5-min Rain = 0
KSC1 141020Z 32005KT 24/20 A3002 RMK A01 T02370197  RH  078%=      5-min Rain = 0
KSC1 141021Z 32005KT 24/20 A3002 RMK A01 T02380197  RH  078%=      5-min Rain = 0
KSC1 141022Z 32005KT 24/20 A3002 RMK A01 T02380197  RH  078%=      5-min Rain = 0
KSC1 141023Z 32004KT 24/20 A3003 RMK A01 T02380197  RH  078%=      5-min Rain = 0
KSC1 141024Z 32004KT 24/20 A3003 RMK A01 T02390198  RH  078%=      5-min Rain = 0
KSC1 141025Z 33004KT 24/20 A3003 RMK A01 T02390198  RH  078%=      5-min Rain = 0
KSC1 141026Z 33004KT 24/20 A3003 RMK A01 T02390198  RH  078%=      5-min Rain = 0
KSC1 141027Z 34004KT 24/20 A3003 RMK A01 T02390198  RH  078%=      5-min Rain = 0
KSC1 141028Z 33004KT 24/20 A3003 RMK A01 T02390198  RH  078%=      5-min Rain = 0
KSC1 141029Z 34004KT 24/20 A3003 RMK A01 T02390198  RH  078%=      5-min Rain = 0
KSC1 141030Z 34004KT 24/20 A3003 RMK A01 T02390198  RH  078%=      5-min Rain = 0
KSC1 141031Z 34004KT 24/20 A3003 RMK A01 T02390198  RH  078%=      5-min Rain = 0
KSC1 141032Z 34004KT 24/20 A3003 RMK A01 T02390198  RH  078%=      5-min Rain = 0
KSC1 141033Z 34003KT 24/20 A3003 RMK A01 T02400199  RH  078%=      5-min Rain = 0
KSC1 141034Z 33003KT 24/20 A3003 RMK A01 T02400199  RH  078%=      5-min Rain = 0
KSC1 141035Z 34003KT 24/20 A3004 RMK A01 T02400199  RH  078%=      5-min Rain = 0
KSC1 141036Z 34004KT 24/20 A3004 RMK A01 T02400199  RH  078%=      5-min Rain = 0
KSC1 141037Z 34004KT 24/20 A3004 RMK A01 T02400199  RH  078%=      5-min Rain = 0
KSC1 141038Z 35003KT 24/20 A3004 RMK A01 T02400200  RH  078%=      5-min Rain = 0
KSC1 141039Z 34002KT 24/20 A3004 RMK A01 T02410199  RH  078%=      5-min Rain = 0
KSC1 141040Z 34003KT 24/20 A3004 RMK A01 T02400199  RH  078%=      5-min Rain = 0
KSC1 141041Z 34003KT 24/20 A3004 RMK A01 T02410200  RH  078%=      5-min Rain = 0
KSC1 141042Z 34002KT 24/20 A3004 RMK A01 T02400200  RH  078%=      5-min Rain = 0
KSC1 141043Z 33003KT 24/20 A3004 RMK A01 T02410200  RH  078%=      5-min Rain = 0
KSC1 141044Z 33004KT 24/20 A3004 RMK A01 T02410200  RH  078%=      5-min Rain = 0
KSC1 141045Z 33003KT 24/20 A3004 RMK A01 T02400200  RH  078%=      5-min Rain = 0
KSC1 141046Z 33003KT 24/20 A3004 RMK A01 T02400200  RH  078%=      5-min Rain = 0
KSC1 141047Z 33003KT 24/20 A3004 RMK A01 T02410200  RH  078%=      5-min Rain = 0
KSC1 141048Z 33002KT 24/20 A3004 RMK A01 T02410201  RH  078%=      5-min Rain = 0
KSC1 141049Z 33002KT 24/20 A3004 RMK A01 T02400201  RH  079%=      5-min Rain = 0
KSC1 141050Z 32002KT 24/20 A3004 RMK A01 T02400201  RH  079%=      5-min Rain = 0
KSC1 141051Z 32002KT 24/20 A3003 RMK A01 T02400201  RH  079%=      5-min Rain = 0
KSC1 141052Z 32001KT 24/20 A3003 RMK A01 T02410202  RH  079%=      5-min Rain = 0
KSC1 141053Z 33001KT 24/20 A3003 RMK A01 T02400201  RH  079%=      5-min Rain = 0
KSC1 141054Z 35001KT 24/20 A3003 RMK A01 T02400201  RH  079%=      5-min Rain = 0
KSC1 141055Z 00000KT 24/20 A3003 RMK A01 T02400200  RH  079%=      5-min Rain = 0
KSC1 141056Z 01000KT 24/20 A3003 RMK A01 T02390200  RH  079%=      5-min Rain = 0
KSC1 141057Z 00000KT 24/20 A3003 RMK A01 T02380200  RH  079%=      5-min Rain = 0
KSC1 141058Z 00000KT 24/20 A3003 RMK A01 T02370197  RH  078%=      5-min Rain = 0
KSC1 141059Z 00000KT 24/20 A3003 RMK A01 T02350197  RH  080%=      5-min Rain = 0
KSC1 141100Z 27000KT 23/20 A3004 RMK A01 T02340200  RH  081%=      5-min Rain = 0
KSC1 141101Z 30000KT 23/20 A3004 RMK A01 T02340200  RH  081%=      5-min Rain = 0
KSC1 141102Z 34001KT 23/20 A3004 RMK A01 T02340199  RH  081%=      5-min Rain = 0
KSC1 141103Z 00000KT 23/20 A3004 RMK A01 T02330197  RH  081%=      5-min Rain = 0
KSC1 141104Z 00000KT 23/20 A3004 RMK A01 T02320198  RH  081%=      5-min Rain = 0
KSC1 141105Z 33000KT 23/20 A3004 RMK A01 T02310197  RH  081%=      5-min Rain = 0
KSC1 141106Z 33000KT 23/20 A3004 RMK A01 T02300199  RH  083%=      5-min Rain = 0
KSC1 141107Z 35001KT 23/20 A3004 RMK A01 T02300200  RH  083%=      5-min Rain = 0
KSC1 141108Z 35000KT 23/20 A3004 RMK A01 T02290199  RH  083%=      5-min Rain = 0
KSC1 141109Z 35001KT 23/20 A3005 RMK A01 T02290202  RH  085%=      5-min Rain = 0
KSC1 141110Z 35000KT 23/20 A3005 RMK A01 T02280200  RH  084%=      5-min Rain = 0
KSC1 141111Z 03000KT 23/20 A3005 RMK A01 T02270200  RH  084%=      5-min Rain = 0
KSC1 141112Z 04001KT 23/20 A3005 RMK A01 T02260196  RH  083%=      5-min Rain = 0
KSC1 141113Z 06000KT 23/19 A3005 RMK A01 T02250194  RH  083%=      5-min Rain = 0
KSC1 141114Z 00000KT 22/19 A3005 RMK A01 T02240194  RH  083%=      5-min Rain = 0
KSC1 141115Z 00000KT 22/20 A3005 RMK A01 T02230195  RH  084%=      5-min Rain = 0
KSC1 141116Z 00000KT 22/20 A3005 RMK A01 T02220197  RH  086%=      5-min Rain = 0
KSC1 141117Z 00000KT 22/20 A3005 RMK A01 T02210199  RH  087%=      5-min Rain = 0
KSC1 141118Z 00000KT 22/20 A3005 RMK A01 T02210201  RH  088%=      5-min Rain = 0
KSC1 141119Z 00000KT 22/20 A3005 RMK A01 T02220202  RH  088%=      5-min Rain = 0
KSC1 141120Z 00000KT 22/20 A3005 RMK A01 T02220204  RH  089%=      5-min Rain = 0
KSC1 141121Z 29000KT 22/21 A3005 RMK A01 T02230207  RH  090%=      5-min Rain = 0
KSC1 141122Z 28001KT 22/21 A3005 RMK A01 T02240205  RH  089%=      5-min Rain = 0
KSC1 141123Z 29002KT 22/21 A3005 RMK A01 T02240206  RH  089%=      5-min Rain = 0
KSC1 141124Z 30002KT 23/21 A3005 RMK A01 T02250207  RH  089%=      5-min Rain = 0
KSC1 141125Z 31002KT 23/21 A3005 RMK A01 T02260208  RH  089%=      5-min Rain = 0
KSC1 141126Z 32003KT 23/21 A3005 RMK A01 T02290210  RH  089%=      5-min Rain = 0
KSC1 141127Z 32003KT 23/21 A3005 RMK A01 T02310206  RH  086%=      5-min Rain = 0
KSC1 141128Z 33003KT 23/20 A3005 RMK A01 T02310203  RH  084%=      5-min Rain = 0
KSC1 141129Z 33003KT 23/21 A3005 RMK A01 T02310205  RH  085%=      5-min Rain = 0
KSC1 141130Z 33003KT 23/21 A3006 RMK A01 T02320205  RH  085%=      5-min Rain = 0
KSC1 141131Z 33003KT 23/20 A3006 RMK A01 T02330204  RH  084%=      5-min Rain = 0
KSC1 141132Z 33003KT 23/20 A3006 RMK A01 T02330204  RH  084%=      5-min Rain = 0
KSC1 141133Z 33003KT 23/20 A3006 RMK A01 T02330204  RH  084%=      5-min Rain = 0
KSC1 141134Z 34004KT 23/20 A3006 RMK A01 T02330203  RH  084%=      5-min Rain = 0
KSC1 141135Z 34004KT 23/20 A3006 RMK A01 T02330204  RH  084%=      5-min Rain = 0
KSC1 141136Z 35004KT 23/20 A3006 RMK A01 T02340203  RH  083%=      5-min Rain = 0
KSC1 141137Z 34003KT 23/20 A3006 RMK A01 T02330202  RH  082%=      5-min Rain = 0
KSC1 141138Z 35003KT 23/20 A3006 RMK A01 T02330204  RH  083%=      5-min Rain = 0
KSC1 141139Z 35003KT 23/21 A3006 RMK A01 T02330205  RH  084%=      5-min Rain = 0
KSC1 141140Z 35002KT 23/21 A3006 RMK A01 T02330205  RH  084%=      5-min Rain = 0
KSC1 141141Z 35001KT 23/21 A3006 RMK A01 T02340205  RH  084%=      5-min Rain = 0
KSC1 141142Z 01000KT 23/21 A3006 RMK A01 T02340206  RH  084%=      5-min Rain = 0
KSC1 141143Z 34001KT 24/21 A3006 RMK A01 T02350206  RH  084%=      5-min Rain = 0
KSC1 141144Z 33001KT 23/21 A3006 RMK A01 T02340205  RH  084%=      5-min Rain = 0
KSC1 141145Z 34002KT 23/21 A3006 RMK A01 T02340206  RH  084%=      5-min Rain = 0
KSC1 141146Z 34002KT 23/21 A3006 RMK A01 T02340206  RH  084%=      5-min Rain = 0
KSC1 141147Z 33003KT 24/21 A3006 RMK A01 T02350206  RH  084%=      5-min Rain = 0
KSC1 141148Z 33003KT 24/21 A3006 RMK A01 T02350206  RH  084%=      5-min Rain = 0
KSC1 141149Z 34003KT 24/21 A3006 RMK A01 T02350206  RH  083%=      5-min Rain = 0
KSC1 141150Z 33003KT 24/21 A3006 RMK A01 T02350206  RH  083%=      5-min Rain = 0
KSC1 141151Z 34002KT 24/21 A3006 RMK A01 T02350205  RH  083%=      5-min Rain = 0
KSC1 141152Z 33002KT 24/21 A3006 RMK A01 T02350206  RH  084%=      5-min Rain = 0
KSC1 141153Z 33003KT 24/21 A3006 RMK A01 T02350205  RH  083%=      5-min Rain = 0
KSC1 141154Z 34003KT 23/21 A3006 RMK A01 T02340205  RH  084%=      5-min Rain = 0
KSC1 141155Z 34003KT 23/21 A3006 RMK A01 T02340205  RH  084%=      5-min Rain = 0
KSC1 141156Z 35004KT 23/21 A3006 RMK A01 T02330206  RH  084%=      5-min Rain = 0
KSC1 141157Z 34003KT 23/21 A3006 RMK A01 T02340207  RH  084%=      5-min Rain = 0
KSC1 141158Z 34003KT 24/21 A3006 RMK A01 T02350206  RH  084%=      5-min Rain = 0
KSC1 141159Z 35004KT 24/21 A3006 RMK A01 T02350206  RH  084%=      5-min Rain = 0
KSC1 141200Z 34004KT 24/21 A3006 RMK A01 T02360207  RH  084%=      5-min Rain = 0
KSC1 141201Z 34003KT 24/21 A3006 RMK A01 T02360207  RH  084%=      5-min Rain = 0
KSC1 141202Z 34004KT 24/21 A3006 RMK A01 T02370207  RH  083%=      5-min Rain = 0
KSC1 141203Z 34004KT 24/21 A3006 RMK A01 T02370207  RH  083%=      5-min Rain = 0
KSC1 141204Z 35004KT 24/21 A3007 RMK A01 T02370207  RH  084%=      5-min Rain = 0
KSC1 141205Z 35005KT 24/21 A3007 RMK A01 T02370207  RH  083%=      5-min Rain = 0
KSC1 141206Z 35005KT 24/21 A3007 RMK A01 T02370207  RH  083%=      5-min Rain = 0
KSC1 141207Z 36004KT 24/21 A3007 RMK A01 T02360207  RH  083%=      5-min Rain = 0
KSC1 141208Z 36004KT 24/21 A3007 RMK A01 T02360207  RH  084%=      5-min Rain = 0
KSC1 141209Z 35004KT 24/21 A3007 RMK A01 T02360208  RH  084%=      5-min Rain = 0
KSC1 141210Z 35005KT 24/21 A3007 RMK A01 T02360207  RH  084%=      5-min Rain = 0
KSC1 141211Z 34003KT 24/21 A3007 RMK A01 T02360208  RH  084%=      5-min Rain = 0
KSC1 141212Z 35003KT 24/21 A3007 RMK A01 T02360207  RH  084%=      5-min Rain = 0
KSC1 141213Z 35003KT 24/21 A3007 RMK A01 T02360207  RH  084%=      5-min Rain = 0
KSC1 141214Z 35002KT 24/21 A3007 RMK A01 T02360207  RH  084%=      5-min Rain = 0
KSC1 141215Z 34002KT 24/21 A3007 RMK A01 T02360207  RH  084%=      5-min Rain = 0
KSC1 141216Z 35004KT 24/21 A3007 RMK A01 T02350207  RH  084%=      5-min Rain = 0
KSC1 141217Z 01004KT 24/21 A3007 RMK A01 T02350207  RH  084%=      5-min Rain = 0
KSC1 141218Z 36004KT 24/21 A3007 RMK A01 T02350207  RH  084%=      5-min Rain = 0
KSC1 141219Z 00003KT 23/21 A3008 RMK A01 T02340207  RH  085%=      5-min Rain = 0
KSC1 141220Z 00003KT 23/21 A3008 RMK A01 T02340207  RH  085%=      5-min Rain = 0
KSC1 141221Z 36003KT 24/21 A3008 RMK A01 T02350208  RH  085%=      5-min Rain = 0
KSC1 141222Z 36004KT 24/21 A3008 RMK A01 T02350207  RH  085%=      5-min Rain = 0
KSC1 141223Z 36004KT 24/21 A3008 RMK A01 T02350207  RH  085%=      5-min Rain = 0
KSC1 141224Z 35003KT 24/21 A3008 RMK A01 T02350207  RH  085%=      5-min Rain = 0
KSC1 141225Z 36004KT 24/21 A3008 RMK A01 T02350207  RH  085%=      5-min Rain = 0
KSC1 141226Z 35004KT 24/21 A3008 RMK A01 T02350208  RH  085%=      5-min Rain = 0
KSC1 141227Z 35004KT 24/21 A3008 RMK A01 T02350207  RH  084%=      5-min Rain = 0
KSC1 141228Z 35003KT 24/21 A3008 RMK A01 T02350208  RH  084%=      5-min Rain = 0
KSC1 141229Z 35004KT 24/21 A3008 RMK A01 T02360208  RH  084%=      5-min Rain = 0
KSC1 141230Z 35004KT 24/21 A3008 RMK A01 T02360208  RH  084%=      5-min Rain = 0
KSC1 141231Z 35003KT 24/21 A3007 RMK A01 T02360208  RH  084%=      5-min Rain = 0
KSC1 141232Z 34003KT 24/21 A3007 RMK A01 T02370208  RH  084%=      5-min Rain = 0
KSC1 141233Z 35003KT 24/21 A3007 RMK A01 T02370207  RH  084%=      5-min Rain = 0
KSC1 141234Z 34002KT 24/21 A3007 RMK A01 T02370208  RH  083%=      5-min Rain = 0
KSC1 141235Z 36002KT 24/21 A3007 RMK A01 T02370208  RH  083%=      5-min Rain = 0
KSC1 141236Z 36003KT 24/21 A3007 RMK A01 T02380208  RH  083%=      5-min Rain = 0
KSC1 141237Z 35004KT 24/21 A3007 RMK A01 T02370208  RH  084%=      5-min Rain = 0
KSC1 141238Z 35004KT 24/21 A3008 RMK A01 T02380208  RH  083%=      5-min Rain = 0
KSC1 141239Z 35005KT 24/21 A3008 RMK A01 T02380208  RH  083%=      5-min Rain = 0
KSC1 141240Z 35005KT 24/21 A3008 RMK A01 T02380208  RH  083%=      5-min Rain = 0
KSC1 141241Z 35006KT 24/21 A3008 RMK A01 T02390208  RH  083%=      5-min Rain = 0
KSC1 141242Z 35005KT 24/21 A3008 RMK A01 T02390208  RH  083%=      5-min Rain = 0
KSC1 141243Z 35005KT 24/21 A3008 RMK A01 T02400208  RH  082%=      5-min Rain = 0
KSC1 141244Z 35006KT 24/21 A3008 RMK A01 T02400208  RH  082%=      5-min Rain = 0
KSC1 141245Z 35007KT 24/21 A3008 RMK A01 T02410208  RH  082%=      5-min Rain = 0
KSC1 141246Z 33005KT 24/21 A3008 RMK A01 T02420208  RH  081%=      5-min Rain = 0
KSC1 141247Z 34005KT 24/21 A3008 RMK A01 T02420208  RH  081%=      5-min Rain = 0
KSC1 141248Z 35007KT 24/21 A3008 RMK A01 T02420208  RH  081%=      5-min Rain = 0
KSC1 141249Z 36006KT 24/21 A3008 RMK A01 T02430208  RH  081%=      5-min Rain = 0
KSC1 141250Z 00005KT 24/21 A3008 RMK A01 T02430207  RH  080%=      5-min Rain = 0
KSC1 141251Z 35005KT 24/21 A3008 RMK A01 T02440208  RH  080%=      5-min Rain = 0
KSC1 141252Z 00005KT 25/21 A3008 RMK A01 T02450208  RH  080%=      5-min Rain = 0
KSC1 141253Z 36005KT 25/21 A3008 RMK A01 T02450208  RH  080%=      5-min Rain = 0
KSC1 141254Z 35005KT 25/21 A3008 RMK A01 T02450208  RH  080%=      5-min Rain = 0
KSC1 141255Z 35005KT 25/21 A3008 RMK A01 T02450208  RH  079%=      5-min Rain = 0
KSC1 141256Z 36004KT 25/21 A3008 RMK A01 T02460208  RH  079%=      5-min Rain = 0
KSC1 141257Z 00004KT 25/21 A3008 RMK A01 T02470208  RH  079%=      5-min Rain = 0
KSC1 141258Z 36005KT 25/21 A3008 RMK A01 T02470208  RH  079%=      5-min Rain = 0
KSC1 141259Z 35004KT 25/21 A3008 RMK A01 T02470208  RH  079%=      5-min Rain = 0
KSC1 141300Z 01004KT 25/21 A3008 RMK A01 T02460207  RH  079%=      5-min Rain = 0
KSC1 141301Z 00004KT 25/21 A3008 RMK A01 T02460207  RH  079%=      5-min Rain = 0
KSC1 141302Z 36004KT 25/21 A3008 RMK A01 T02470207  RH  079%=      5-min Rain = 0
KSC1 141303Z 01004KT 25/21 A3009 RMK A01 T02470207  RH  078%=      5-min Rain = 0
KSC1 141304Z 00005KT 25/21 A3009 RMK A01 T02480208  RH  078%=      5-min Rain = 0
KSC1 141305Z 35006KT 25/21 A3009 RMK A01 T02480207  RH  078%=      5-min Rain = 0
KSC1 141306Z 00006KT 25/21 A3009 RMK A01 T02480206  RH  078%=      5-min Rain = 0
KSC1 141307Z 35006KT 25/21 A3008 RMK A01 T02480206  RH  078%=      5-min Rain = 0
KSC1 141308Z 36004KT 25/21 A3008 RMK A01 T02480207  RH  078%=      5-min Rain = 0
KSC1 141309Z 00005KT 25/21 A3008 RMK A01 T02470207  RH  078%=      5-min Rain = 0
KSC1 141310Z 00007KT 25/21 A3008 RMK A01 T02470206  RH  078%=      5-min Rain = 0
KSC1 141311Z 00006KT 25/21 A3008 RMK A01 T02470206  RH  078%=      5-min Rain = 0
KSC1 141312Z 35006KT 25/21 A3009 RMK A01 T02480207  RH  078%=      5-min Rain = 0
KSC1 141313Z 01006KT 25/21 A3009 RMK A01 T02470206  RH  078%=      5-min Rain = 0
KSC1 141314Z 01006KT 25/21 A3009 RMK A01 T02470206  RH  078%=      5-min Rain = 0
KSC1 141315Z 01007KT 25/21 A3009 RMK A01 T02480206  RH  078%=      5-min Rain = 0
KSC1 141316Z 00009KT 25/21 A3009 RMK A01 T02470206  RH  077%=      5-min Rain = 0
KSC1 141317Z 36008KT 25/21 A3009 RMK A01 T02480206  RH  077%=      5-min Rain = 0
KSC1 141318Z 36008G13KT 25/21 A3009 RMK A01 T02470205  RH  077%=      5-min Rain = 0
KSC1 141319Z 00009KT 25/21 A3009 RMK A01 T02470205  RH  077%=      5-min Rain = 0
KSC1 141320Z 00010KT 25/21 A3009 RMK A01 T02470205  RH  077%=      5-min Rain = 0
KSC1 141321Z 36006KT 25/21 A3009 RMK A01 T02470205  RH  077%=      5-min Rain = 0
KSC1 141322Z 01008KT 25/20 A3009 RMK A01 T02470204  RH  077%=      5-min Rain = 0
KSC1 141323Z 02008KT 25/20 A3009 RMK A01 T02470204  RH  077%=      5-min Rain = 0
KSC1 141324Z 02007KT 25/20 A3009 RMK A01 T02470204  RH  077%=      5-min Rain = 0
KSC1 141325Z 01005KT 25/20 A3009 RMK A01 T02470204  RH  077%=      5-min Rain = 0
KSC1 141326Z 00008KT 25/20 A3009 RMK A01 T02470204  RH  077%=      5-min Rain = 0
KSC1 141327Z 01007KT 25/20 A3009 RMK A01 T02480204  RH  076%=      5-min Rain = 0
KSC1 141328Z 01007KT 25/20 A3009 RMK A01 T02490204  RH  076%=      5-min Rain = 0
KSC1 141329Z 35005KT 25/20 A3009 RMK A01 T02500204  RH  076%=      5-min Rain = 0
KSC1 141330Z 00004KT 25/20 A301 RMK A01 T02520204  RH  075%=      5-min Rain = 0
KSC1 141331Z 00006KT 25/21 A301 RMK A01 T02540205  RH  074%=      5-min Rain = 0
KSC1 141332Z 01008KT 26/21 A301 RMK A01 T02550205  RH  074%=      5-min Rain = 0
KSC1 141333Z 01008KT 26/20 A301 RMK A01 T02560204  RH  073%=      5-min Rain = 0
KSC1 141334Z 00008KT 26/20 A301 RMK A01 T02550204  RH  073%=      5-min Rain = 0
KSC1 141335Z 01007KT 26/20 A3009 RMK A01 T02550204  RH  073%=      5-min Rain = 0
KSC1 141336Z 02006KT 26/20 A3009 RMK A01 T02550204  RH  073%=      5-min Rain = 0
KSC1 141337Z 02004KT 26/20 A3009 RMK A01 T02550204  RH  073%=      5-min Rain = 0
KSC1 141338Z 01006KT 26/20 A301 RMK A01 T02560204  RH  073%=      5-min Rain = 0
KSC1 141339Z 01005KT 26/20 A301 RMK A01 T02570204  RH  073%=      5-min Rain = 0
KSC1 141340Z 36006KT 26/21 A301 RMK A01 T02580205  RH  072%=      5-min Rain = 0
KSC1 141341Z 35006KT 26/20 A301 RMK A01 T02590204  RH  072%=      5-min Rain = 0
KSC1 141342Z 01005KT 26/20 A301 RMK A01 T02600204  RH  071%=      5-min Rain = 0
KSC1 141343Z 00008KT 26/20 A3009 RMK A01 T02610204  RH  071%=      5-min Rain = 0
KSC1 141344Z 01006KT 26/20 A3009 RMK A01 T02610204  RH  071%=      5-min Rain = 0
KSC1 141345Z 03005KT 26/21 A3009 RMK A01 T02610205  RH  071%=      5-min Rain = 0
KSC1 141346Z 02007KT 26/21 A301 RMK A01 T02620205  RH  071%=      5-min Rain = 0
KSC1 141347Z 02007KT 26/20 A301 RMK A01 T02630204  RH  070%=      5-min Rain = 0
KSC1 141348Z 02007KT 26/20 A301 RMK A01 T02630204  RH  070%=      5-min Rain = 0
KSC1 141349Z 03008KT 26/20 A301 RMK A01 T02630204  RH  070%=      5-min Rain = 0
KSC1 141350Z 02009KT 26/20 A301 RMK A01 T02630204  RH  070%=      5-min Rain = 0
KSC1 141351Z 02006KT 26/20 A301 RMK A01 T02630204  RH  070%=      5-min Rain = 0
KSC1 141352Z 02008KT 26/20 A301 RMK A01 T02620204  RH  070%=      5-min Rain = 0
KSC1 141353Z 01008KT 26/20 A301 RMK A01 T02640204  RH  070%=      5-min Rain = 0
KSC1 141354Z 01008KT 27/20 A301 RMK A01 T02650203  RH  069%=      5-min Rain = 0
KSC1 141355Z 02008KT 26/20 A301 RMK A01 T02640203  RH  069%=      5-min Rain = 0
KSC1 141356Z 02005KT 26/20 A301 RMK A01 T02640204  RH  069%=      5-min Rain = 0
KSC1 141357Z 02009KT 27/20 A3011 RMK A01 T02660204  RH  069%=      5-min Rain = 0
KSC1 141358Z 01008KT 27/20 A3011 RMK A01 T02660203  RH  069%=      5-min Rain = 0
KSC1 141359Z 02007KT 27/20 A3011 RMK A01 T02660204  RH  069%=      5-min Rain = 0
KSC1 141400Z 01009KT 27/20 A3011 RMK A01 T02650203  RH  069%=      5-min Rain = 0
KSC1 141401Z 01007KT 27/20 A3011 RMK A01 T02650203  RH  069%=      5-min Rain = 0
KSC1 141402Z 02007G12KT 27/20 A3011 RMK A01 T02650204  RH  069%=      5-min Rain = 0
KSC1 141403Z 03008KT 27/20 A3011 RMK A01 T02650203  RH  069%=      5-min Rain = 0
KSC1 141404Z 03008KT 27/20 A3011 RMK A01 T02660203  RH  068%=      5-min Rain = 0
KSC1 141405Z 03007KT 27/20 A3011 RMK A01 T02660203  RH  068%=      5-min Rain = 0
KSC1 141406Z 03008KT 27/20 A3011 RMK A01 T02670204  RH  068%=      5-min Rain = 0
KSC1 141407Z 02008KT 27/20 A3011 RMK A01 T02670203  RH  068%=      5-min Rain = 0
KSC1 141408Z 01008KT 27/20 A3011 RMK A01 T02650203  RH  068%=      5-min Rain = 0
KSC1 141409Z 36007KT 26/20 A3011 RMK A01 T02640203  RH  069%=      5-min Rain = 0
KSC1 141410Z 01006KT 26/20 A3011 RMK A01 T02640202  RH  069%=      5-min Rain = 0
KSC1 141411Z 02008KT 27/20 A3011 RMK A01 T02650203  RH  069%=      5-min Rain = 0
KSC1 141412Z 02008KT 27/20 A3011 RMK A01 T02680204  RH  068%=      5-min Rain = 0
KSC1 141413Z 02006KT 27/20 A3011 RMK A01 T02690203  RH  067%=      5-min Rain = 0
KSC1 141414Z 02008KT 27/20 A3011 RMK A01 T02700203  RH  067%=      5-min Rain = 0
KSC1 141415Z 02006KT 27/20 A3011 RMK A01 T02690203  RH  067%=      5-min Rain = 0
KSC1 141416Z 03006KT 27/20 A3011 RMK A01 T02690203  RH  067%=      5-min Rain = 0
KSC1 141417Z 02007KT 27/20 A3012 RMK A01 T02690203  RH  067%=      5-min Rain = 0
KSC1 141418Z 01010KT 27/20 A3012 RMK A01 T02700203  RH  067%=      5-min Rain = 0
KSC1 141419Z 01008KT 27/20 A3012 RMK A01 T02700203  RH  067%=      5-min Rain = 0
KSC1 141420Z 01006KT 27/20 A3012 RMK A01 T02690204  RH  067%=      5-min Rain = 0
KSC1 141421Z 02009KT 27/20 A3012 RMK A01 T02690203  RH  067%=      5-min Rain = 0
KSC1 141422Z 02008KT 27/20 A3012 RMK A01 T02690203  RH  067%=      5-min Rain = 0
KSC1 141423Z 02007KT 27/20 A3012 RMK A01 T02680203  RH  067%=      5-min Rain = 0
KSC1 141424Z 02007KT 27/20 A3012 RMK A01 T02680203  RH  067%=      5-min Rain = 0
KSC1 141425Z 02009KT 27/20 A3012 RMK A01 T02700203  RH  067%=      5-min Rain = 0
KSC1 141426Z 00010KT 27/20 A3012 RMK A01 T02710203  RH  066%=      5-min Rain = 0
KSC1 141427Z 35008KT 27/20 A3012 RMK A01 T02720203  RH  066%=      5-min Rain = 0
KSC1 141428Z 00010KT 27/20 A3012 RMK A01 T02710202  RH  066%=      5-min Rain = 0
KSC1 141429Z 02010KT 27/20 A3012 RMK A01 T02700202  RH  067%=      5-min Rain = 0
KSC1 141430Z 02010KT 27/20 A3012 RMK A01 T02680202  RH  067%=      5-min Rain = 0
KSC1 141431Z 03008KT 27/20 A3012 RMK A01 T02670202  RH  068%=      5-min Rain = 0
KSC1 141432Z 02006KT 27/20 A3012 RMK A01 T02660202  RH  068%=      5-min Rain = 0
KSC1 141433Z 00008KT 27/20 A3012 RMK A01 T02680202  RH  067%=      5-min Rain = 0
KSC1 141434Z 36006KT 27/20 A3012 RMK A01 T02710203  RH  066%=      5-min Rain = 0
KSC1 141435Z 35010KT 27/20 A3013 RMK A01 T02730203  RH  065%=      5-min Rain = 0
KSC1 141436Z 01009KT 27/20 A3013 RMK A01 T02740203  RH  065%=      5-min Rain = 0
KSC1 141437Z 02010KT 27/20 A3013 RMK A01 T02730203  RH  065%=      5-min Rain = 0
KSC1 141438Z 02009KT 27/20 A3013 RMK A01 T02730203  RH  065%=      5-min Rain = 0
KSC1 141439Z 02008G13KT 27/20 A3013 RMK A01 T02730202  RH  065%=      5-min Rain = 0
KSC1 141440Z 02011KT 27/20 A3013 RMK A01 T02720202  RH  065%=      5-min Rain = 0
KSC1 141441Z 02009KT 27/20 A3013 RMK A01 T02710201  RH  066%=      5-min Rain = 0
KSC1 141442Z 02010KT 27/20 A3013 RMK A01 T02700202  RH  066%=      5-min Rain = 0
KSC1 141443Z 03010KT 27/20 A3013 RMK A01 T02700201  RH  066%=      5-min Rain = 0
KSC1 141444Z 02010KT 27/20 A3013 RMK A01 T02690201  RH  066%=      5-min Rain = 0
KSC1 141445Z 01008KT 27/20 A3013 RMK A01 T02680202  RH  067%=      5-min Rain = 0
KSC1 141446Z 00011KT 27/20 A3013 RMK A01 T02680201  RH  067%=      5-min Rain = 0
KSC1 141447Z 00012KT 27/20 A3013 RMK A01 T02700201  RH  066%=      5-min Rain = 0
KSC1 141448Z 01010KT 27/20 A3013 RMK A01 T02700201  RH  066%=      5-min Rain = 0
KSC1 141449Z 01011KT 27/20 A3013 RMK A01 T02710201  RH  066%=      5-min Rain = 0
KSC1 141450Z 01008KT 27/20 A3013 RMK A01 T02710201  RH  066%=      5-min Rain = 0
KSC1 141451Z 36010KT 27/20 A3013 RMK A01 T02720202  RH  066%=      5-min Rain = 0
KSC1 141452Z 01010KT 27/20 A3013 RMK A01 T02730202  RH  065%=      5-min Rain = 0
KSC1 141453Z 00012KT 27/20 A3013 RMK A01 T02730203  RH  065%=      5-min Rain = 0
KSC1 141454Z 00010KT 27/20 A3013 RMK A01 T02730202  RH  065%=      5-min Rain = 0
KSC1 141455Z 01007KT 27/20 A3013 RMK A01 T02730203  RH  065%=      5-min Rain = 0
KSC1 141456Z 01008KT 28/20 A3014 RMK A01 T02750203  RH  065%=      5-min Rain = 0
KSC1 141457Z 02009KT 28/20 A3014 RMK A01 T02760203  RH  064%=      5-min Rain = 0
KSC1 141458Z 01009KT 28/20 A3014 RMK A01 T02780204  RH  064%=      5-min Rain = 0
KSC1 141459Z 02009KT 28/20 A3014 RMK A01 T02790204  RH  064%=      5-min Rain = 0
KSC1 141500Z 02009KT 28/20 A3014 RMK A01 T02800204  RH  063%=      5-min Rain = 0
KSC1 141501Z 00009KT 28/20 A3014 RMK A01 T02800204  RH  063%=      5-min Rain = 0
KSC1 141502Z 00008KT 28/20 A3014 RMK A01 T02800203  RH  063%=      5-min Rain = 0
KSC1 141503Z 36009KT 28/20 A3013 RMK A01 T02790204  RH  064%=      5-min Rain = 0
KSC1 141504Z 35009KT 28/20 A3013 RMK A01 T02810203  RH  063%=      5-min Rain = 0
KSC1 141505Z 01011KT 28/20 A3013 RMK A01 T02810204  RH  063%=      5-min Rain = 0
KSC1 141506Z 01011KT 28/20 A3014 RMK A01 T02810204  RH  063%=      5-min Rain = 0
KSC1 141507Z 01011KT 28/20 A3014 RMK A01 T02800203  RH  063%=      5-min Rain = 0
KSC1 141508Z 02011KT 28/20 A3014 RMK A01 T02780203  RH  064%=      5-min Rain = 0
KSC1 141509Z 02010G15KT 28/20 A3014 RMK A01 T02760202  RH  064%=      5-min Rain = 0
KSC1 141510Z 03009KT 27/20 A3014 RMK A01 T02740203  RH  065%=      5-min Rain = 0
KSC1 141511Z 02006KT 27/20 A3014 RMK A01 T02740203  RH  065%=      5-min Rain = 0
KSC1 141512Z 03006KT 27/20 A3014 RMK A01 T02740203  RH  065%=      5-min Rain = 0
KSC1 141513Z 02008KT 28/20 A3014 RMK A01 T02760204  RH  065%=      5-min Rain = 0
KSC1 141514Z 01007KT 28/21 A3014 RMK A01 T02770205  RH  065%=      5-min Rain = 0
KSC1 141515Z 03007KT 28/21 A3014 RMK A01 T02780205  RH  064%=      5-min Rain = 0
KSC1 141516Z 02007KT 28/21 A3014 RMK A01 T02780205  RH  064%=      5-min Rain = 0
KSC1 141517Z 02006KT 28/21 A3014 RMK A01 T02790205  RH  064%=      5-min Rain = 0
KSC1 141518Z 02007KT 28/21 A3014 RMK A01 T02800205  RH  064%=      5-min Rain = 0
KSC1 141519Z 02008KT 28/21 A3014 RMK A01 T02810205  RH  063%=      5-min Rain = 0
KSC1 141520Z 01007G12KT 28/21 A3014 RMK A01 T02810205  RH  063%=      5-min Rain = 0
KSC1 141521Z 01010KT 28/21 A3014 RMK A01 T02810205  RH  063%=      5-min Rain = 0
KSC1 141522Z 01011KT 28/20 A3014 RMK A01 T02800204  RH  063%=      5-min Rain = 0
KSC1 141523Z 00010KT 28/20 A3014 RMK A01 T02800204  RH  063%=      5-min Rain = 0
KSC1 141524Z 00008KT 28/21 A3014 RMK A01 T02810205  RH  063%=      5-min Rain = 0
KSC1 141525Z 01008G13KT 28/21 A3014 RMK A01 T02840205  RH  062%=      5-min Rain = 0
KSC1 141526Z 01009G14KT 29/21 A3014 RMK A01 T02860205  RH  062%=      5-min Rain = 0
KSC1 141527Z 02012KT 29/21 A3014 RMK A01 T02870205  RH  061%=      5-min Rain = 0
KSC1 141528Z 01010KT 29/21 A3014 RMK A01 T02860205  RH  062%=      5-min Rain = 0
KSC1 141529Z 02012KT 28/21 A3014 RMK A01 T02840205  RH  062%=      5-min Rain = 0
KSC1 141530Z 03011KT 28/21 A3014 RMK A01 T02840205  RH  062%=      5-min Rain = 0
KSC1 141531Z 01007KT 28/21 A3014 RMK A01 T02840205  RH  062%=      5-min Rain = 0
KSC1 141532Z 03009G15KT 29/21 A3014 RMK A01 T02850206  RH  062%=      5-min Rain = 0
KSC1 141533Z 04010KT 29/21 A3014 RMK A01 T02870206  RH  062%=      5-min Rain = 0
KSC1 141534Z 04010KT 29/21 A3014 RMK A01 T02870206  RH  061%=      5-min Rain = 0
KSC1 141535Z 03009KT 29/21 A3014 RMK A01 T02880206  RH  061%=      5-min Rain = 0
KSC1 141536Z 02006G12KT 29/21 A3014 RMK A01 T02890207  RH  061%=      5-min Rain = 0
KSC1 141537Z 01007KT 29/21 A3014 RMK A01 T02900208  RH  061%=      5-min Rain = 0
KSC1 141538Z 00010KT 29/21 A3014 RMK A01 T02940207  RH  060%=      5-min Rain = 0
KSC1 141539Z 00008KT 30/21 A3014 RMK A01 T02950206  RH  059%=      5-min Rain = 0
KSC1 141540Z 02009KT 30/21 A3015 RMK A01 T02960207  RH  059%=      5-min Rain = 0
KSC1 141541Z 00009G14KT 30/21 A3015 RMK A01 T02950207  RH  059%=      5-min Rain = 0
KSC1 141542Z 00013KT 29/21 A3015 RMK A01 T02940206  RH  059%=      5-min Rain = 0
KSC1 141543Z 01013KT 29/21 A3015 RMK A01 T02920206  RH  060%=      5-min Rain = 0
KSC1 141544Z 00009KT 29/21 A3015 RMK A01 T02900206  RH  060%=      5-min Rain = 0
KSC1 141545Z 00011KT 29/21 A3015 RMK A01 T02900206  RH  060%=      5-min Rain = 0
KSC1 141546Z 00013KT 29/21 A3015 RMK A01 T02920206  RH  060%=      5-min Rain = 0
KSC1 141547Z 00011G16KT 29/21 A3015 RMK A01 T02930206  RH  060%=      5-min Rain = 0
KSC1 141548Z 01010G15KT 29/21 A3015 RMK A01 T02940207  RH  059%=      5-min Rain = 0
KSC1 141549Z 00013KT 30/21 A3015 RMK A01 T02970207  RH  058%=      5-min Rain = 0
KSC1 141550Z 01013KT 30/21 A3015 RMK A01 T02960206  RH  059%=      5-min Rain = 0
KSC1 141551Z 01011KT 29/21 A3015 RMK A01 T02930206  RH  060%=      5-min Rain = 0
KSC1 141552Z 01011G16KT 29/21 A3015 RMK A01 T02910206  RH  060%=      5-min Rain = 0
KSC1 141553Z 01014KT 29/21 A3015 RMK A01 T02900206  RH  060%=      5-min Rain = 0
KSC1 141554Z 00013KT 29/21 A3015 RMK A01 T02880205  RH  061%=      5-min Rain = 0
KSC1 141555Z 00011KT 29/20 A3015 RMK A01 T02860204  RH  061%=      5-min Rain = 0
KSC1 141556Z 35011KT 29/21 A3015 RMK A01 T02860205  RH  062%=      5-min Rain = 0
KSC1 141557Z 01010KT 29/21 A3015 RMK A01 T02870205  RH  061%=      5-min Rain = 0
KSC1 141558Z 01008KT 29/21 A3015 RMK A01 T02910206  RH  060%=      5-min Rain = 0
KSC1 141559Z 02008KT 29/21 A3015 RMK A01 T02940207  RH  059%=      5-min Rain = 0
KSC1 141600Z 02009G14KT 30/21 A3015 RMK A01 T02960207  RH  059%=      5-min Rain = 0
KSC1 141601Z 03009G14KT 30/21 A3015 RMK A01 T02970207  RH  058%=      5-min Rain = 0
KSC1 141602Z 02009G16KT 30/21 A3015 RMK A01 T02970207  RH  058%=      5-min Rain = 0
KSC1 141603Z 02012KT 30/21 A3016 RMK A01 T02960206  RH  059%=      5-min Rain = 0
KSC1 141604Z 02008KT 30/21 A3015 RMK A01 T02950206  RH  059%=      5-min Rain = 0
KSC1 141605Z 02009KT 29/21 A3015 RMK A01 T02940205  RH  059%=      5-min Rain = 0
KSC1 141606Z 02012KT 29/21 A3016 RMK A01 T02930205  RH  059%=      5-min Rain = 0
KSC1 141607Z 03012KT 29/20 A3015 RMK A01 T02940204  RH  059%=      5-min Rain = 0
KSC1 141608Z 03011KT 29/20 A3016 RMK A01 T02940204  RH  058%=      5-min Rain = 0
KSC1 141609Z 01011G16KT 29/21 A3016 RMK A01 T02940205  RH  059%=      5-min Rain = 0
KSC1 141610Z 35013G18KT 29/21 A3015 RMK A01 T02940205  RH  059%=      5-min Rain = 0
KSC1 141611Z 36013KT 30/21 A3016 RMK A01 T02950205  RH  059%=      5-min Rain = 0
KSC1 141612Z 36008G13KT 29/21 A3015 RMK A01 T02940206  RH  059%=      5-min Rain = 0
KSC1 141613Z 36010KT 29/21 A3015 RMK A01 T02930205  RH  059%=      5-min Rain = 0
KSC1 141614Z 36012KT 29/21 A3015 RMK A01 T02920206  RH  060%=      5-min Rain = 0
KSC1 141615Z 36012KT 29/21 A3015 RMK A01 T02920205  RH  059%=      5-min Rain = 0
KSC1 141616Z 00011G16KT 29/21 A3016 RMK A01 T02940205  RH  059%=      5-min Rain = 0
KSC1 141617Z 01008KT 29/21 A3015 RMK A01 T02940205  RH  059%=      5-min Rain = 0
KSC1 141618Z 01009KT 29/21 A3015 RMK A01 T02940205  RH  059%=      5-min Rain = 0
KSC1 141619Z 01012G17KT 30/21 A3016 RMK A01 T02950205  RH  058%=      5-min Rain = 0
KSC1 141620Z 02011KT 30/20 A3016 RMK A01 T02960204  RH  058%=      5-min Rain = 0
KSC1 141621Z 02013KT 30/20 A3016 RMK A01 T02950204  RH  058%=      5-min Rain = 0
KSC1 141622Z 02009KT 29/20 A3015 RMK A01 T02940204  RH  058%=      5-min Rain = 0
KSC1 141623Z 01012KT 29/20 A3015 RMK A01 T02940203  RH  058%=      5-min Rain = 0
KSC1 141624Z 01011KT 30/20 A3016 RMK A01 T02950202  RH  057%=      5-min Rain = 0
KSC1 141625Z 02006KT 29/20 A3015 RMK A01 T02940204  RH  058%=      5-min Rain = 0
KSC1 141626Z 02009KT 30/20 A3016 RMK A01 T02960204  RH  058%=      5-min Rain = 0
KSC1 141627Z 02009KT 30/21 A3015 RMK A01 T02960205  RH  058%=      5-min Rain = 0
KSC1 141628Z 00011KT 30/21 A3016 RMK A01 T02950205  RH  058%=      5-min Rain = 0
KSC1 141629Z 35009KT 30/20 A3015 RMK A01 T02960204  RH  058%=      5-min Rain = 0
KSC1 141630Z 01011G16KT 30/21 A3016 RMK A01 T02980206  RH  058%=      5-min Rain = 0
KSC1 141631Z 00015KT 30/20 A3016 RMK A01 T03010203  RH  056%=      5-min Rain = 0
KSC1 141632Z 01015KT 30/20 A3016 RMK A01 T02980202  RH  056%=      5-min Rain = 0
KSC1 141633Z 00013KT 30/20 A3016 RMK A01 T02960201  RH  057%=      5-min Rain = 0
KSC1 141634Z 01011KT 30/20 A3016 RMK A01 T02960202  RH  057%=      5-min Rain = 0
KSC1 141635Z 01011KT 30/20 A3016 RMK A01 T02960202  RH  057%=      5-min Rain = 0
KSC1 141636Z 01010G15KT 30/20 A3016 RMK A01 T02960203  RH  057%=      5-min Rain = 0
KSC1 141637Z 00009KT 30/20 A3016 RMK A01 T02950204  RH  058%=      5-min Rain = 0
KSC1 141638Z 01007KT 29/20 A3016 RMK A01 T02940204  RH  058%=      5-min Rain = 0
KSC1 141639Z 35009KT 30/20 A3015 RMK A01 T02950203  RH  058%=      5-min Rain = 0
KSC1 141640Z 35007KT 30/20 A3015 RMK A01 T02950204  RH  058%=      5-min Rain = 0
KSC1 141641Z 01010KT 30/20 A3016 RMK A01 T02970204  RH  058%=      5-min Rain = 0
KSC1 141642Z 01011KT 30/20 A3016 RMK A01 T02990204  RH  057%=      5-min Rain = 0
KSC1 141643Z 36013KT 30/20 A3016 RMK A01 T02970204  RH  057%=      5-min Rain = 0
KSC1 141644Z 35010KT 30/20 A3016 RMK A01 T02970204  RH  057%=      5-min Rain = 0
KSC1 141645Z 00010KT 30/20 A3015 RMK A01 T02970203  RH  057%=      5-min Rain = 0
KSC1 141646Z 36011KT 30/20 A3015 RMK A01 T02980203  RH  057%=      5-min Rain = 0
KSC1 141647Z 01011KT 30/20 A3016 RMK A01 T03000203  RH  056%=      5-min Rain = 0
KSC1 141648Z 01007KT 30/20 A3015 RMK A01 T03000204  RH  056%=      5-min Rain = 0
KSC1 141649Z 00008KT 30/20 A3015 RMK A01 T02990204  RH  057%=      5-min Rain = 0
KSC1 141650Z 01009KT 30/20 A3015 RMK A01 T03010203  RH  056%=      5-min Rain = 0
KSC1 141651Z 00007KT 30/20 A3015 RMK A01 T03010204  RH  056%=      5-min Rain = 0
KSC1 141652Z 02008KT 30/20 A3015 RMK A01 T03020204  RH  056%=      5-min Rain = 0
KSC1 141653Z 04011KT 31/21 A3015 RMK A01 T03050205  RH  055%=      5-min Rain = 0
KSC1 141654Z 05013KT 31/20 A3015 RMK A01 T03060202  RH  054%=      5-min Rain = 0
KSC1 141655Z 04013KT 30/20 A3015 RMK A01 T03010201  RH  055%=      5-min Rain = 0
KSC1 141656Z 03012KT 30/20 A3016 RMK A01 T02990201  RH  056%=      5-min Rain = 0
KSC1 141657Z 03012KT 30/20 A3016 RMK A01 T02990200  RH  055%=      5-min Rain = 0
KSC1 141658Z 02011KT 30/20 A3016 RMK A01 T02970199  RH  056%=      5-min Rain = 0
KSC1 141659Z 02009KT 29/20 A3016 RMK A01 T02930200  RH  057%=      5-min Rain = 0
KSC1 141700Z 01010KT 29/20 A3016 RMK A01 T02920200  RH  058%=      5-min Rain = 0
KSC1 141701Z 02008KT 29/20 A3016 RMK A01 T02920201  RH  058%=      5-min Rain = 0
KSC1 141702Z 01008KT 30/20 A3015 RMK A01 T02950201  RH  057%=      5-min Rain = 0
KSC1 141703Z 03011KT 30/20 A3015 RMK A01 T02990202  RH  056%=      5-min Rain = 0
KSC1 141704Z 03011KT 30/20 A3015 RMK A01 T03010200  RH  055%=      5-min Rain = 0
KSC1 141705Z 03010KT 30/20 A3015 RMK A01 T03000201  RH  055%=      5-min Rain = 0
KSC1 141706Z 02010KT 30/20 A3015 RMK A01 T03000201  RH  055%=      5-min Rain = 0
KSC1 141707Z 03009KT 30/20 A3015 RMK A01 T02990201  RH  056%=      5-min Rain = 0
KSC1 141708Z 03010KT 30/20 A3015 RMK A01 T03010202  RH  055%=      5-min Rain = 0
KSC1 141709Z 04007G12KT 30/20 A3015 RMK A01 T03030201  RH  054%=      5-min Rain = 0
KSC1 141710Z 04012G17KT 30/20 A3015 RMK A01 T03040201  RH  054%=      5-min Rain = 0
KSC1 141711Z 03013KT 30/20 A3015 RMK A01 T03040200  RH  054%=      5-min Rain = 0
KSC1 141712Z 04012G17KT 30/20 A3015 RMK A01 T03040200  RH  054%=      5-min Rain = 0
KSC1 141713Z 03013KT 30/20 A3015 RMK A01 T03020200  RH  054%=      5-min Rain = 0
KSC1 141714Z 04008KT 30/20 A3015 RMK A01 T03000201  RH  055%=      5-min Rain = 0
KSC1 141715Z 04011KT 30/20 A3015 RMK A01 T03020202  RH  055%=      5-min Rain = 0
KSC1 141716Z 05012KT 30/20 A3015 RMK A01 T03040201  RH  054%=      5-min Rain = 0
KSC1 141717Z 05011KT 30/20 A3015 RMK A01 T03040200  RH  054%=      5-min Rain = 0
KSC1 141718Z 06008KT 30/20 A3015 RMK A01 T03030200  RH  054%=      5-min Rain = 0
KSC1 141719Z 04011KT 30/20 A3015 RMK A01 T03040201  RH  054%=      5-min Rain = 0
KSC1 141720Z 04011KT 31/20 A3015 RMK A01 T03070202  RH  054%=      5-min Rain = 0
KSC1 141721Z 01011KT 31/20 A3015 RMK A01 T03070203  RH  054%=      5-min Rain = 0
KSC1 141722Z 35011KT 31/20 A3015 RMK A01 T03070203  RH  054%=      5-min Rain = 0
KSC1 141723Z 01012KT 31/20 A3015 RMK A01 T03070204  RH  054%=      5-min Rain = 0
KSC1 141724Z 00014KT 31/20 A3015 RMK A01 T03070202  RH  054%=      5-min Rain = 0
KSC1 141725Z 35011KT 30/20 A3015 RMK A01 T03040201  RH  054%=      5-min Rain = 0
KSC1 141726Z 35012KT 30/20 A3015 RMK A01 T03030201  RH  055%=      5-min Rain = 0
KSC1 141727Z 36011KT 30/20 A3015 RMK A01 T03040203  RH  055%=      5-min Rain = 0
KSC1 141728Z 36010KT 31/20 A3015 RMK A01 T03080204  RH  054%=      5-min Rain = 0
KSC1 141729Z 00012KT 31/20 A3015 RMK A01 T03090203  RH  053%=      5-min Rain = 0
KSC1 141730Z 01010KT 31/20 A3015 RMK A01 T03090203  RH  053%=      5-min Rain = 0
KSC1 141731Z 01011KT 31/20 A3015 RMK A01 T03080201  RH  053%=      5-min Rain = 0
KSC1 141732Z 03011G17KT 31/20 A3015 RMK A01 T03070201  RH  053%=      5-min Rain = 0
KSC1 141733Z 03015KT 31/20 A3015 RMK A01 T03070200  RH  053%=      5-min Rain = 0
KSC1 141734Z 01015KT 31/20 A3015 RMK A01 T03070198  RH  052%=      5-min Rain = 0
KSC1 141735Z 02013KT 31/20 A3015 RMK A01 T03070199  RH  053%=      5-min Rain = 0
KSC1 141736Z 02010KT 31/20 A3015 RMK A01 T03050199  RH  053%=      5-min Rain = 0
KSC1 141737Z 02011KT 30/20 A3015 RMK A01 T03040200  RH  054%=      5-min Rain = 0
KSC1 141738Z 02012KT 31/20 A3015 RMK A01 T03060200  RH  053%=      5-min Rain = 0
KSC1 141739Z 03011KT 31/20 A3015 RMK A01 T03060201  RH  053%=      5-min Rain = 0
KSC1 141740Z 02009KT 31/20 A3014 RMK A01 T03090200  RH  052%=      5-min Rain = 0
KSC1 141741Z 04010G16KT 31/20 A3014 RMK A01 T03100201  RH  052%=      5-min Rain = 0
KSC1 141742Z 01011G16KT 31/20 A3014 RMK A01 T03120199  RH  051%=      5-min Rain = 0
KSC1 141743Z 03013KT 31/20 A3014 RMK A01 T03110200  RH  052%=      5-min Rain = 0
KSC1 141744Z 03011KT 31/20 A3014 RMK A01 T03110198  RH  051%=      5-min Rain = 0
KSC1 141745Z 01012KT 31/20 A3014 RMK A01 T03140199  RH  050%=      5-min Rain = 0
KSC1 141746Z 02012KT 31/20 A3014 RMK A01 T03130198  RH  050%=      5-min Rain = 0
KSC1 141747Z 02011KT 31/20 A3014 RMK A01 T03100196  RH  051%=      5-min Rain = 0
KSC1 141748Z 02009KT 31/20 A3014 RMK A01 T03100198  RH  052%=      5-min Rain = 0
KSC1 141749Z 01011KT 31/20 A3014 RMK A01 T03090199  RH  052%=      5-min Rain = 0
KSC1 141750Z 00012KT 31/20 A3014 RMK A01 T03090197  RH  051%=      5-min Rain = 0
KSC1 141751Z 01012KT 31/20 A3014 RMK A01 T03090195  RH  051%=      5-min Rain = 0
KSC1 141752Z 03011KT 31/20 A3014 RMK A01 T03080195  RH  051%=      5-min Rain = 0
KSC1 141753Z 01009KT 31/20 A3014 RMK A01 T03090196  RH  051%=      5-min Rain = 0
KSC1 141754Z 00011KT 31/20 A3014 RMK A01 T03110197  RH  051%=      5-min Rain = 0
KSC1 141755Z 00010KT 31/20 A3014 RMK A01 T03130199  RH  051%=      5-min Rain = 0
KSC1 141756Z 02009KT 31/20 A3014 RMK A01 T03110200  RH  052%=      5-min Rain = 0
KSC1 141757Z 01006G11KT 31/20 A3013 RMK A01 T03100199  RH  052%=      5-min Rain = 0
KSC1 141758Z 02008G13KT 31/20 A3013 RMK A01 T03090199  RH  052%=      5-min Rain = 0
KSC1 141759Z 00011KT 31/20 A3014 RMK A01 T03120198  RH  051%=      5-min Rain = 0
KSC1 141800Z 36011KT 31/20 A3014 RMK A01 T03140197  RH  050%=      5-min Rain = 0
KSC1 141801Z 02012KT 31/20 A3013 RMK A01 T03140198  RH  050%=      5-min Rain = 0
KSC1 141802Z 02010KT 31/20 A3013 RMK A01 T03140197  RH  050%=      5-min Rain = 0
KSC1 141803Z 01010KT 31/20 A3013 RMK A01 T03130199  RH  051%=      5-min Rain = 0
KSC1 141804Z 02009KT 31/20 A3013 RMK A01 T03140198  RH  050%=      5-min Rain = 0
KSC1 141805Z 02009KT 31/20 A3013 RMK A01 T03120198  RH  051%=      5-min Rain = 0
KSC1 141806Z 04010G15KT 31/20 A3013 RMK A01 T03110200  RH  052%=      5-min Rain = 0
KSC1 141807Z 05012KT 31/20 A3013 RMK A01 T03130199  RH  051%=      5-min Rain = 0
KSC1 141808Z 04008KT 31/20 A3013 RMK A01 T03140200  RH  051%=      5-min Rain = 0
KSC1 141809Z 02010KT 32/20 A3013 RMK A01 T03160202  RH  051%=      5-min Rain = 0
KSC1 141810Z 01010KT 32/20 A3013 RMK A01 T03170202  RH  051%=      5-min Rain = 0
KSC1 141811Z 00010KT 32/20 A3013 RMK A01 T03170201  RH  050%=      5-min Rain = 0
KSC1 141812Z 36010KT 32/20 A3013 RMK A01 T03170200  RH  050%=      5-min Rain = 0
KSC1 141813Z 02009KT 32/20 A3013 RMK A01 T03190200  RH  049%=      5-min Rain = 0
KSC1 141814Z 03007KT 32/20 A3013 RMK A01 T03210199  RH  049%=      5-min Rain = 0
KSC1 141815Z 01007KT 32/20 A3013 RMK A01 T03220200  RH  048%=      5-min Rain = 0
KSC1 141816Z 35007KT 32/20 A3013 RMK A01 T03240199  RH  048%=      5-min Rain = 0
KSC1 141817Z 01009KT 33/20 A3013 RMK A01 T03250200  RH  048%=      5-min Rain = 0
KSC1 141818Z 01010KT 32/20 A3013 RMK A01 T03240201  RH  048%=      5-min Rain = 0
KSC1 141819Z 35009KT 32/20 A3013 RMK A01 T03230201  RH  048%=      5-min Rain = 0
KSC1 141820Z 01006KT 32/20 A3013 RMK A01 T03230201  RH  048%=      5-min Rain = 0
KSC1 141821Z 01007G14KT 32/20 A3013 RMK A01 T03240201  RH  048%=      5-min Rain = 0
KSC1 141822Z 02011KT 33/20 A3013 RMK A01 T03250199  RH  047%=      5-min Rain = 0
KSC1 141823Z 01008KT 32/20 A3013 RMK A01 T03240198  RH  047%=      5-min Rain = 0
KSC1 141824Z 01006KT 32/20 A3013 RMK A01 T03220199  RH  048%=      5-min Rain = 0
KSC1 141825Z 02007KT 32/20 A3013 RMK A01 T03230198  RH  048%=      5-min Rain = 0
KSC1 141826Z 01006KT 32/20 A3012 RMK A01 T03220198  RH  048%=      5-min Rain = 0
KSC1 141827Z 02008KT 32/20 A3012 RMK A01 T03230200  RH  048%=      5-min Rain = 0
KSC1 141828Z 00008KT 33/20 A3012 RMK A01 T03270197  RH  046%=      5-min Rain = 0
KSC1 141829Z 35009KT 33/20 A3012 RMK A01 T03290196  RH  046%=      5-min Rain = 0
KSC1 141830Z 00007KT 33/20 A3012 RMK A01 T03250195  RH  046%=      5-min Rain = 0
KSC1 141831Z 01006KT 32/20 A3012 RMK A01 T03230197  RH  047%=      5-min Rain = 0
KSC1 141832Z 01008KT 33/20 A3012 RMK A01 T03270198  RH  047%=      5-min Rain = 0
KSC1 141833Z 01010KT 33/20 A3012 RMK A01 T03290196  RH  045%=      5-min Rain = 0
KSC1 141834Z 01012G19KT 33/19 A3012 RMK A01 T03280194  RH  045%=      5-min Rain = 0
KSC1 141835Z 01010G15KT 33/20 A3012 RMK A01 T03280195  RH  046%=      5-min Rain = 0
KSC1 141836Z 01013KT 33/20 A3012 RMK A01 T03280195  RH  045%=      5-min Rain = 0
KSC1 141837Z 36011KT 33/20 A3012 RMK A01 T03270195  RH  046%=      5-min Rain = 0
KSC1 141838Z 00010KT 33/20 A3012 RMK A01 T03260195  RH  046%=      5-min Rain = 0
KSC1 141839Z 01011KT 33/19 A3012 RMK A01 T03260194  RH  046%=      5-min Rain = 0
KSC1 141840Z 01012G17KT 33/20 A3012 RMK A01 T03260195  RH  046%=      5-min Rain = 0
KSC1 141841Z 02011KT 33/20 A3012 RMK A01 T03270196  RH  046%=      5-min Rain = 0
KSC1 141842Z 01007KT 33/20 A3012 RMK A01 T03290197  RH  046%=      5-min Rain = 0
KSC1 141843Z 00007KT 33/20 A3012 RMK A01 T03330198  RH  045%=      5-min Rain = 0
KSC1 141844Z 36007KT 34/20 A3011 RMK A01 T03370196  RH  044%=      5-min Rain = 0
KSC1 141845Z 36004KT 33/20 A3011 RMK A01 T03330195  RH  044%=      5-min Rain = 0
KSC1 141846Z 03011KT 33/20 A3011 RMK A01 T03320197  RH  045%=      5-min Rain = 0
KSC1 141847Z 02011KT 33/20 A3011 RMK A01 T03340197  RH  044%=      5-min Rain = 0
KSC1 141848Z 03008KT 34/20 A3011 RMK A01 T03350197  RH  044%=      5-min Rain = 0
KSC1 141849Z 04009KT 34/20 A3011 RMK A01 T03360196  RH  044%=      5-min Rain = 0
KSC1 141850Z 05012KT 34/19 A3011 RMK A01 T03380191  RH  042%=      5-min Rain = 0
KSC1 141851Z 04010KT 34/19 A3011 RMK A01 T03370190  RH  042%=      5-min Rain = 0
KSC1 141852Z 05012G18KT 33/19 A3011 RMK A01 T03340192  RH  043%=      5-min Rain = 0
KSC1 141853Z 04013KT 33/19 A3011 RMK A01 T03330192  RH  043%=      5-min Rain = 0
KSC1 141854Z 04010KT 33/19 A3011 RMK A01 T03330193  RH  044%=      5-min Rain = 0
KSC1 141855Z 05009KT 33/19 A3011 RMK A01 T03330193  RH  044%=      5-min Rain = 0
KSC1 141856Z 03011G16KT 33/19 A3011 RMK A01 T03340193  RH  043%=      5-min Rain = 0
KSC1 141857Z 02009KT 33/19 A3011 RMK A01 T03330194  RH  044%=      5-min Rain = 0
KSC1 141858Z 01008KT 33/19 A301 RMK A01 T03330194  RH  044%=      5-min Rain = 0
KSC1 141859Z 02009G14KT 33/20 A301 RMK A01 T03330195  RH  044%=      5-min Rain = 0
KSC1 141900Z 05011G16KT 33/19 A3011 RMK A01 T03330194  RH  044%=      5-min Rain = 0
KSC1 141901Z 03010G15KT 34/19 A3011 RMK A01 T03350192  RH  043%=      5-min Rain = 0
KSC1 141902Z 04008KT 34/19 A301 RMK A01 T03370191  RH  042%=      5-min Rain = 0
KSC1 141903Z 05013G18KT 34/19 A301 RMK A01 T03360193  RH  043%=      5-min Rain = 0
KSC1 141904Z 05014KT 34/19 A301 RMK A01 T03390192  RH  042%=      5-min Rain = 0
KSC1 141905Z 06011KT 34/19 A301 RMK A01 T03390192  RH  042%=      5-min Rain = 0
KSC1 141906Z 04010KT 34/19 A301 RMK A01 T03360192  RH  043%=      5-min Rain = 0
KSC1 141907Z 05009KT 34/19 A301 RMK A01 T03370192  RH  042%=      5-min Rain = 0
KSC1 141908Z 06006KT 34/19 A301 RMK A01 T03360192  RH  043%=      5-min Rain = 0
KSC1 141909Z 03010KT 34/19 A301 RMK A01 T03350192  RH  043%=      5-min Rain = 0
KSC1 141910Z 05008KT 34/19 A301 RMK A01 T03360192  RH  043%=      5-min Rain = 0
KSC1 141911Z 05010KT 34/19 A301 RMK A01 T03380193  RH  042%=      5-min Rain = 0
KSC1 141912Z 04010KT 34/19 A301 RMK A01 T03370192  RH  043%=      5-min Rain = 0
KSC1 141913Z 05008KT 34/19 A301 RMK A01 T03360193  RH  043%=      5-min Rain = 0
KSC1 141914Z 06009KT 34/19 A301 RMK A01 T03390194  RH  043%=      5-min Rain = 0
KSC1 141915Z 05012G19KT 34/19 A301 RMK A01 T03430193  RH  041%=      5-min Rain = 0
KSC1 141916Z 04012KT 35/19 A301 RMK A01 T03460191  RH  040%=      5-min Rain = 0
KSC1 141917Z 05015KT 35/19 A301 RMK A01 T03450192  RH  041%=      5-min Rain = 0
KSC1 141918Z 06013KT 34/19 A301 RMK A01 T03430191  RH  041%=      5-min Rain = 0
KSC1 141919Z 07007KT 34/19 A301 RMK A01 T03430191  RH  041%=      5-min Rain = 0
KSC1 141920Z 06010KT 34/19 A301 RMK A01 T03410191  RH  041%=      5-min Rain = 0
KSC1 141921Z 06010KT 34/19 A3009 RMK A01 T03390191  RH  042%=      5-min Rain = 0
KSC1 141922Z 05011KT 34/19 A3009 RMK A01 T03390192  RH  042%=      5-min Rain = 0
KSC1 141923Z 02010KT 34/19 A3009 RMK A01 T03410192  RH  042%=      5-min Rain = 0
KSC1 141924Z 02008KT 34/19 A3009 RMK A01 T03440192  RH  041%=      5-min Rain = 0
KSC1 141925Z 02008KT 35/19 A3009 RMK A01 T03470192  RH  040%=      5-min Rain = 0
KSC1 141926Z 04009KT 35/19 A3009 RMK A01 T03480192  RH  040%=      5-min Rain = 0
KSC1 141927Z 06010KT 35/19 A3009 RMK A01 T03480192  RH  040%=      5-min Rain = 0
KSC1 141928Z 05012G19KT 35/19 A3008 RMK A01 T03450192  RH  041%=      5-min Rain = 0
KSC1 141929Z 05014G19KT 35/19 A3009 RMK A01 T03450191  RH  040%=      5-min Rain = 0
KSC1 141930Z 05013KT 35/19 A3009 RMK A01 T03470191  RH  040%=      5-min Rain = 0
KSC1 141931Z 05011KT 35/19 A3009 RMK A01 T03480191  RH  040%=      5-min Rain = 0
KSC1 141932Z 05008KT 35/19 A3008 RMK A01 T03470192  RH  040%=      5-min Rain = 0
KSC1 141933Z 05008KT 35/19 A3008 RMK A01 T03480190  RH  040%=      5-min Rain = 0
KSC1 141934Z 06006KT 35/19 A3008 RMK A01 T03450191  RH  040%=      5-min Rain = 0
KSC1 141935Z 06010KT 35/19 A3008 RMK A01 T03450192  RH  041%=      5-min Rain = 0
KSC1 141936Z 06015G20KT 35/19 A3008 RMK A01 T03470190  RH  040%=      5-min Rain = 0
KSC1 141937Z 06013G18KT 35/19 A3008 RMK A01 T03460191  RH  040%=      5-min Rain = 0
KSC1 141938Z 05012G17KT 35/19 A3008 RMK A01 T03460192  RH  040%=      5-min Rain = 0
KSC1 141939Z 07012KT 35/19 A3008 RMK A01 T03480191  RH  040%=      5-min Rain = 0
KSC1 141940Z 07013KT 35/19 A3008 RMK A01 T03470192  RH  040%=      5-min Rain = 0
KSC1 141941Z 06008KT 35/19 A3008 RMK A01 T03450191  RH  040%=      5-min Rain = 0
KSC1 141942Z 06009KT 34/19 A3007 RMK A01 T03440191  RH  041%=      5-min Rain = 0
KSC1 141943Z 06009KT 35/19 A3007 RMK A01 T03450191  RH  040%=      5-min Rain = 0
KSC1 141944Z 07011KT 35/19 A3007 RMK A01 T03450191  RH  040%=      5-min Rain = 0
KSC1 141945Z 05014G19KT 35/19 A3007 RMK A01 T03470191  RH  040%=      5-min Rain = 0
KSC1 141946Z 04014KT 35/19 A3007 RMK A01 T03520192  RH  039%=      5-min Rain = 0
KSC1 141947Z 05016KT 35/19 A3007 RMK A01 T03520190  RH  039%=      5-min Rain = 0
KSC1 141948Z 05012KT 35/19 A3007 RMK A01 T03500189  RH  039%=      5-min Rain = 0
KSC1 141949Z 03012G17KT 35/19 A3007 RMK A01 T03490190  RH  039%=      5-min Rain = 0
KSC1 141950Z 03006KT 35/19 A3007 RMK A01 T03510191  RH  039%=      5-min Rain = 0
KSC1 141951Z 06005KT 36/19 A3007 RMK A01 T03560192  RH  038%=      5-min Rain = 0
KSC1 141952Z 05007G12KT 36/19 A3007 RMK A01 T03610193  RH  037%=      5-min Rain = 0
KSC1 141953Z 05012KT 36/19 A3007 RMK A01 T03630192  RH  037%=      5-min Rain = 0
KSC1 141954Z 03009KT 36/19 A3006 RMK A01 T03570188  RH  037%=      5-min Rain = 0
KSC1 141955Z 04005KT 35/19 A3006 RMK A01 T03530187  RH  038%=      5-min Rain = 0
KSC1 141956Z 04008KT 35/19 A3006 RMK A01 T03520189  RH  038%=      5-min Rain = 0
KSC1 141957Z 03005KT 35/19 A3006 RMK A01 T03520190  RH  038%=      5-min Rain = 0
KSC1 141958Z 02007KT 36/19 A3006 RMK A01 T03550189  RH  038%=      5-min Rain = 0
KSC1 141959Z 02011KT 36/19 A3006 RMK A01 T03590187  RH  037%=      5-min Rain = 0
KSC1 142000Z 02013KT 36/19 A3006 RMK A01 T03600187  RH  036%=      5-min Rain = 0
KSC1 142001Z 03011KT 36/19 A3006 RMK A01 T03580187  RH  037%=      5-min Rain = 0
KSC1 142002Z 02010KT 36/19 A3006 RMK A01 T03570186  RH  037%=      5-min Rain = 0
KSC1 142003Z 06010G15KT 36/19 A3006 RMK A01 T03560186  RH  037%=      5-min Rain = 0
KSC1 142004Z 04010KT 36/19 A3006 RMK A01 T03570187  RH  037%=      5-min Rain = 0
KSC1 142005Z 05014KT 36/19 A3006 RMK A01 T03580187  RH  037%=      5-min Rain = 0
KSC1 142006Z 04013KT 36/19 A3006 RMK A01 T03580187  RH  037%=      5-min Rain = 0
KSC1 142007Z 05013KT 36/19 A3006 RMK A01 T03600187  RH  036%=      5-min Rain = 0
KSC1 142008Z 06010KT 36/19 A3006 RMK A01 T03580187  RH  037%=      5-min Rain = 0
KSC1 142009Z 07008KT 36/19 A3006 RMK A01 T03580187  RH  037%=      5-min Rain = 0
KSC1 142010Z 07009KT 36/19 A3006 RMK A01 T03570186  RH  037%=      5-min Rain = 0
KSC1 142011Z 04012KT 36/19 A3006 RMK A01 T03550186  RH  037%=      5-min Rain = 0
KSC1 142012Z 04007KT 35/19 A3006 RMK A01 T03540185  RH  037%=      5-min Rain = 0
KSC1 142013Z 05009G14KT 36/19 A3006 RMK A01 T03550187  RH  037%=      5-min Rain = 0
KSC1 142014Z 05012KT 36/19 A3006 RMK A01 T03590187  RH  036%=      5-min Rain = 0
KSC1 142015Z 06014KT 36/19 A3006 RMK A01 T03600186  RH  036%=      5-min Rain = 0
KSC1 142016Z 06010G15KT 36/19 A3006 RMK A01 T03560185  RH  037%=      5-min Rain = 0
KSC1 142017Z 05009KT 35/19 A3005 RMK A01 T03540185  RH  037%=      5-min Rain = 0
KSC1 142018Z 01010G17KT 36/19 A3005 RMK A01 T03560188  RH  037%=      5-min Rain = 0
KSC1 142019Z 00010G15KT 36/19 A3005 RMK A01 T03590186  RH  036%=      5-min Rain = 0
KSC1 142020Z 02006KT 36/19 A3005 RMK A01 T03570187  RH  037%=      5-min Rain = 0
KSC1 142021Z 05009KT 36/19 A3005 RMK A01 T03580188  RH  037%=      5-min Rain = 0
KSC1 142022Z 06010G15KT 36/19 A3005 RMK A01 T03610187  RH  036%=      5-min Rain = 0
KSC1 142023Z 07010KT 36/19 A3005 RMK A01 T03630187  RH  036%=      5-min Rain = 0
KSC1 142024Z 07012KT 36/19 A3005 RMK A01 T03640186  RH  035%=      5-min Rain = 0
KSC1 142025Z 06009KT 36/19 A3005 RMK A01 T03610185  RH  036%=      5-min Rain = 0
KSC1 142026Z 05013KT 36/19 A3005 RMK A01 T03590186  RH  036%=      5-min Rain = 0
KSC1 142027Z 07013KT 36/19 A3005 RMK A01 T03590186  RH  036%=      5-min Rain = 0
KSC1 142028Z 07009KT 36/19 A3005 RMK A01 T03560187  RH  037%=      5-min Rain = 0
KSC1 142029Z 08010KT 36/19 A3005 RMK A01 T03570187  RH  037%=      5-min Rain = 0
KSC1 142030Z 06008KT 36/19 A3005 RMK A01 T03600188  RH  037%=      5-min Rain = 0
KSC1 142031Z 08009KT 36/19 A3004 RMK A01 T03620187  RH  036%=      5-min Rain = 0
KSC1 142032Z 05006KT 36/19 A3004 RMK A01 T03610187  RH  036%=      5-min Rain = 0
KSC1 142033Z 07007KT 36/19 A3004 RMK A01 T03610188  RH  036%=      5-min Rain = 0
KSC1 142034Z 03010KT 36/19 A3004 RMK A01 T03620187  RH  036%=      5-min Rain = 0
KSC1 142035Z 02008KT 36/19 A3004 RMK A01 T03590186  RH  036%=      5-min Rain = 0
KSC1 142036Z 05010G15KT 36/19 A3004 RMK A01 T03560186  RH  037%=      5-min Rain = 0
KSC1 142037Z 06009KT 36/19 A3004 RMK A01 T03550185  RH  037%=      5-min Rain = 0
KSC1 142038Z 06014G21KT 36/19 A3004 RMK A01 T03560185  RH  037%=      5-min Rain = 0
KSC1 142039Z 04017KT 36/19 A3004 RMK A01 T03570186  RH  036%=      5-min Rain = 0
KSC1 142040Z 05013KT 36/19 A3004 RMK A01 T03580186  RH  036%=      5-min Rain = 0
KSC1 142041Z 05013KT 36/19 A3004 RMK A01 T03580186  RH  036%=      5-min Rain = 0
KSC1 142042Z 04011KT 36/19 A3004 RMK A01 T03590186  RH  036%=      5-min Rain = 0
KSC1 142043Z 04009KT 36/19 A3004 RMK A01 T03590187  RH  036%=      5-min Rain = 0
KSC1 142044Z 03010KT 36/19 A3004 RMK A01 T03610187  RH  036%=      5-min Rain = 0
KSC1 142045Z 04007G12KT 36/19 A3004 RMK A01 T03610185  RH  035%=      5-min Rain = 0
KSC1 142046Z 05009KT 36/18 A3004 RMK A01 T03620184  RH  035%=      5-min Rain = 0
KSC1 142047Z 04008KT 36/18 A3004 RMK A01 T03610182  RH  035%=      5-min Rain = 0
KSC1 142048Z 06007KT 36/18 A3004 RMK A01 T03610184  RH  035%=      5-min Rain = 0
KSC1 142049Z 04009KT 36/18 A3004 RMK A01 T03600184  RH  036%=      5-min Rain = 0
KSC1 142050Z 04012KT 36/18 A3004 RMK A01 T03610183  RH  035%=      5-min Rain = 0
KSC1 142051Z 04011KT 36/18 A3004 RMK A01 T03630184  RH  035%=      5-min Rain = 0
KSC1 142052Z 03010KT 37/18 A3004 RMK A01 T03650183  RH  034%=      5-min Rain = 0
KSC1 142053Z 05009KT 36/18 A3004 RMK A01 T03620184  RH  035%=      5-min Rain = 0
KSC1 142054Z 05009KT 36/18 A3004 RMK A01 T03610184  RH  035%=      5-min Rain = 0
KSC1 142055Z 05005KT 36/18 A3004 RMK A01 T03580182  RH  035%=      5-min Rain = 0
KSC1 142056Z 06006KT 36/18 A3004 RMK A01 T03570184  RH  036%=      5-min Rain = 0
KSC1 142057Z 09007KT 36/18 A3004 RMK A01 T03590184  RH  036%=      5-min Rain = 0
KSC1 142058Z 06007KT 36/19 A3004 RMK A01 T03630186  RH  035%=      5-min Rain = 0
KSC1 142059Z 08009KT 37/19 A3004 RMK A01 T03670186  RH  035%=      5-min Rain = 0
KSC1 142100Z 07008G13KT 37/19 A3004 RMK A01 T03670186  RH  035%=      5-min Rain = 0
KSC1 142101Z 03010G16KT 37/19 A3004 RMK A01 T03700186  RH  034%=      5-min Rain = 0
KSC1 142102Z 02012KT 37/18 A3004 RMK A01 T03690183  RH  034%=      5-min Rain = 0
KSC1 142103Z 01011KT 36/18 A3004 RMK A01 T03640183  RH  034%=      5-min Rain = 0
KSC1 142104Z 01007KT 36/18 A3004 RMK A01 T03620183  RH  035%=      5-min Rain = 0
KSC1 142105Z 35004KT 36/18 A3004 RMK A01 T03610183  RH  035%=      5-min Rain = 0
KSC1 142106Z 03008G17KT 36/18 A3004 RMK A01 T03610182  RH  035%=      5-min Rain = 0
KSC1 142107Z 04014KT 36/18 A3004 RMK A01 T03620182  RH  035%=      5-min Rain = 0
KSC1 142108Z 04012KT 36/18 A3004 RMK A01 T03630182  RH  035%=      5-min Rain = 0
KSC1 142109Z 06008KT 37/18 A3004 RMK A01 T03650182  RH  034%=      5-min Rain = 0
KSC1 142110Z 05011KT 37/18 A3004 RMK A01 T03700181  RH  033%=      5-min Rain = 0
KSC1 142111Z 06010KT 37/18 A3004 RMK A01 T03690181  RH  033%=      5-min Rain = 0
KSC1 142112Z 05011G16KT 37/18 A3004 RMK A01 T03670181  RH  033%=      5-min Rain = 0
KSC1 142113Z 06011KT 37/18 A3004 RMK A01 T03670181  RH  034%=      5-min Rain = 0
KSC1 142114Z 07014KT 37/18 A3004 RMK A01 T03660182  RH  034%=      5-min Rain = 0
KSC1 142115Z 06013KT 37/18 A3004 RMK A01 T03650182  RH  034%=      5-min Rain = 0
KSC1 142116Z 06010G15KT 36/18 A3004 RMK A01 T03640182  RH  034%=      5-min Rain = 0
KSC1 142117Z 06012KT 36/18 A3004 RMK A01 T03630182  RH  034%=      5-min Rain = 0
KSC1 142118Z 06010KT 36/18 A3004 RMK A01 T03590179  RH  035%=      5-min Rain = 0
KSC1 142119Z 06006KT 36/18 A3004 RMK A01 T03560178  RH  035%=      5-min Rain = 0
KSC1 142120Z 05010KT 36/18 A3004 RMK A01 T03550179  RH  035%=      5-min Rain = 0
KSC1 142121Z 06011KT 36/18 A3004 RMK A01 T03590179  RH  035%=      5-min Rain = 0
KSC1 142122Z 05009KT 36/18 A3004 RMK A01 T03610178  RH  034%=      5-min Rain = 0
KSC1 142123Z 04012KT 36/18 A3004 RMK A01 T03610178  RH  034%=      5-min Rain = 0
KSC1 142124Z 03011KT 36/18 A3004 RMK A01 T03610178  RH  034%=      5-min Rain = 0
KSC1 142125Z 03009KT 36/18 A3003 RMK A01 T03620178  RH  034%=      5-min Rain = 0
KSC1 142126Z 04008KT 36/18 A3003 RMK A01 T03630178  RH  034%=      5-min Rain = 0
KSC1 142127Z 03004KT 36/18 A3003 RMK A01 T03620178  RH  034%=      5-min Rain = 0
KSC1 142128Z 04003KT 36/18 A3003 RMK A01 T03610178  RH  034%=      5-min Rain = 0
KSC1 142129Z 05004KT 36/18 A3003 RMK A01 T03620178  RH  034%=      5-min Rain = 0
KSC1 142130Z 02007G12KT 36/18 A3003 RMK A01 T03630178  RH  034%=      5-min Rain = 0
KSC1 142131Z 03007KT 36/18 A3003 RMK A01 T03630181  RH  034%=      5-min Rain = 0
KSC1 142132Z 06006KT 36/18 A3003 RMK A01 T03630180  RH  034%=      5-min Rain = 0
KSC1 142133Z 04010G15KT 36/18 A3003 RMK A01 T03640181  RH  034%=      5-min Rain = 0
KSC1 142134Z 03013KT 37/18 A3003 RMK A01 T03660179  RH  033%=      5-min Rain = 0
KSC1 142135Z 04012G17KT 37/18 A3003 RMK A01 T03670178  RH  033%=      5-min Rain = 0
KSC1 142136Z 02012G17KT 37/18 A3003 RMK A01 T03680178  RH  033%=      5-min Rain = 0
KSC1 142137Z 04009KT 37/18 A3003 RMK A01 T03670177  RH  033%=      5-min Rain = 0
KSC1 142138Z 01010KT 37/18 A3003 RMK A01 T03650177  RH  033%=      5-min Rain = 0
KSC1 142139Z 00009G14KT 37/18 A3003 RMK A01 T03650176  RH  033%=      5-min Rain = 0
KSC1 142140Z 01007KT 37/18 A3003 RMK A01 T03650176  RH  033%=      5-min Rain = 0
KSC1 142141Z 02010KT 37/18 A3003 RMK A01 T03670176  RH  033%=      5-min Rain = 0
KSC1 142142Z 03005KT 37/18 A3003 RMK A01 T03680178  RH  033%=      5-min Rain = 0
KSC1 142143Z 02006KT 37/18 A3003 RMK A01 T03720178  RH  032%=      5-min Rain = 0
KSC1 142144Z 04007KT 37/18 A3003 RMK A01 T03740177  RH  032%=      5-min Rain = 0
KSC1 142145Z 04007KT 37/18 A3003 RMK A01 T03730178  RH  032%=      5-min Rain = 0
KSC1 142146Z 07009KT 37/18 A3003 RMK A01 T03740179  RH  032%=      5-min Rain = 0
KSC1 142147Z 07007KT 38/18 A3003 RMK A01 T03750178  RH  032%=      5-min Rain = 0
KSC1 142148Z 08006KT 37/18 A3003 RMK A01 T03730177  RH  032%=      5-min Rain = 0
KSC1 142149Z 07007KT 37/18 A3003 RMK A01 T03700175  RH  032%=      5-min Rain = 0
KSC1 142150Z 05006KT 37/17 A3003 RMK A01 T03690174  RH  032%=      5-min Rain = 0
KSC1 142151Z 04007KT 37/17 A3003 RMK A01 T03700174  RH  032%=      5-min Rain = 0
KSC1 142152Z 04011KT 37/18 A3003 RMK A01 T03700176  RH  032%=      5-min Rain = 0
KSC1 142153Z 04008KT 37/18 A3003 RMK A01 T03700176  RH  032%=      5-min Rain = 0
KSC1 142154Z 05008KT 37/18 A3003 RMK A01 T03700177  RH  032%=      5-min Rain = 0
KSC1 142155Z 06008KT 37/18 A3003 RMK A01 T03690176  RH  032%=      5-min Rain = 0
KSC1 142156Z 05009KT 36/18 A3003 RMK A01 T03640176  RH  033%=      5-min Rain = 0
KSC1 142157Z 04010KT 36/18 A3003 RMK A01 T03600175  RH  034%=      5-min Rain = 0
KSC1 142158Z 04008KT 36/18 A3003 RMK A01 T03580176  RH  034%=      5-min Rain = 0
KSC1 142159Z 04011KT 36/18 A3003 RMK A01 T03570175  RH  034%=      5-min Rain = 0
KSC1 142200Z 04011KT 36/18 A3003 RMK A01 T03580175  RH  034%=      5-min Rain = 0
KSC1 142201Z 05008KT 36/17 A3003 RMK A01 T03600174  RH  034%=      5-min Rain = 0
KSC1 142202Z 04007KT 36/17 A3003 RMK A01 T03600174  RH  033%=      5-min Rain = 0
KSC1 142203Z 04008KT 36/17 A3003 RMK A01 T03580173  RH  034%=      5-min Rain = 0
KSC1 142204Z 03009KT 36/17 A3003 RMK A01 T03550173  RH  034%=      5-min Rain = 0
KSC1 142205Z 04007KT 35/17 A3003 RMK A01 T03530172  RH  034%=      5-min Rain = 0
KSC1 142206Z 03004KT 35/17 A3003 RMK A01 T03540172  RH  034%=      5-min Rain = 0
KSC1 142207Z 01007KT 36/17 A3003 RMK A01 T03580171  RH  033%=      5-min Rain = 0
KSC1 142208Z 05007KT 36/17 A3003 RMK A01 T03600171  RH  033%=      5-min Rain = 0
KSC1 142209Z 03007KT 36/17 A3003 RMK A01 T03620171  RH  032%=      5-min Rain = 0
KSC1 142210Z 03006KT 37/17 A3003 RMK A01 T03650172  RH  032%=      5-min Rain = 0
KSC1 142211Z 04006KT 36/17 A3003 RMK A01 T03630170  RH  032%=      5-min Rain = 0
KSC1 142212Z 35003KT 36/17 A3002 RMK A01 T03630172  RH  032%=      5-min Rain = 0
KSC1 142213Z 02005KT 36/17 A3002 RMK A01 T03640170  RH  032%=      5-min Rain = 0
KSC1 142214Z 01005KT 36/17 A3002 RMK A01 T03640170  RH  032%=      5-min Rain = 0
KSC1 142215Z 01003KT 36/17 A3002 RMK A01 T03640169  RH  032%=      5-min Rain = 0
KSC1 142216Z 03005KT 36/17 A3002 RMK A01 T03640170  RH  032%=      5-min Rain = 0
KSC1 142217Z 06009KT 37/17 A3002 RMK A01 T03650171  RH  032%=      5-min Rain = 0
KSC1 142218Z 06008KT 37/17 A3002 RMK A01 T03660171  RH  032%=      5-min Rain = 0
KSC1 142219Z 07010KT 37/17 A3002 RMK A01 T03650169  RH  032%=      5-min Rain = 0
KSC1 142220Z 08008KT 36/17 A3002 RMK A01 T03640167  RH  031%=      5-min Rain = 0
KSC1 142221Z 08006KT 36/17 A3002 RMK A01 T03610167  RH  032%=      5-min Rain = 0
KSC1 142222Z 07005KT 36/17 A3002 RMK A01 T03600169  RH  032%=      5-min Rain = 0
KSC1 142223Z 07004KT 36/17 A3002 RMK A01 T03610171  RH  033%=      5-min Rain = 0
KSC1 142224Z 09002KT 36/17 A3002 RMK A01 T03630171  RH  032%=      5-min Rain = 0
KSC1 142225Z 32003KT 37/17 A3002 RMK A01 T03650172  RH  032%=      5-min Rain = 0
KSC1 142226Z 25003KT 36/17 A3002 RMK A01 T03640171  RH  032%=      5-min Rain = 0
KSC1 142227Z 08003KT 36/17 A3002 RMK A01 T03620171  RH  033%=      5-min Rain = 0
KSC1 142228Z 06007KT 36/17 A3002 RMK A01 T03610172  RH  033%=      5-min Rain = 0
KSC1 142229Z 05006KT 36/17 A3002 RMK A01 T03610171  RH  033%=      5-min Rain = 0
KSC1 142230Z 06004KT 36/17 A3002 RMK A01 T03590172  RH  033%=      5-min Rain = 0
KSC1 142231Z 07006KT 36/17 A3002 RMK A01 T03590173  RH  033%=      5-min Rain = 0
KSC1 142232Z 06006KT 36/17 A3002 RMK A01 T03590172  RH  033%=      5-min Rain = 0
KSC1 142233Z 07006KT 36/17 A3002 RMK A01 T03590173  RH  033%=      5-min Rain = 0
KSC1 142234Z 07004KT 36/17 A3002 RMK A01 T03590172  RH  033%=      5-min Rain = 0
KSC1 142235Z 07003KT 36/17 A3002 RMK A01 T03600172  RH  033%=      5-min Rain = 0
KSC1 142236Z 04004KT 36/17 A3002 RMK A01 T03620173  RH  033%=      5-min Rain = 0
KSC1 142237Z 06006KT 36/17 A3002 RMK A01 T03630174  RH  033%=      5-min Rain = 0
KSC1 142238Z 08004KT 36/17 A3002 RMK A01 T03630170  RH  032%=      5-min Rain = 0
KSC1 142239Z 10004KT 36/17 A3002 RMK A01 T03600168  RH  032%=      5-min Rain = 0
KSC1 142240Z 11003KT 36/17 A3002 RMK A01 T03590169  RH  033%=      5-min Rain = 0
KSC1 142241Z 10003KT 36/17 A3002 RMK A01 T03580169  RH  033%=      5-min Rain = 0
KSC1 142242Z 07003KT 36/17 A3002 RMK A01 T03580168  RH  033%=      5-min Rain = 0
KSC1 142243Z 05006KT 36/17 A3002 RMK A01 T03580169  RH  033%=      5-min Rain = 0
KSC1 142244Z 06005KT 36/17 A3002 RMK A01 T03580169  RH  033%=      5-min Rain = 0
KSC1 142245Z 05004KT 36/17 A3002 RMK A01 T03570170  RH  033%=      5-min Rain = 0
KSC1 142246Z 03004KT 36/17 A3002 RMK A01 T03570169  RH  033%=      5-min Rain = 0
KSC1 142247Z 36004KT 36/17 A3002 RMK A01 T03580169  RH  033%=      5-min Rain = 0
KSC1 142248Z 32004KT 36/17 A3002 RMK A01 T03570169  RH  033%=      5-min Rain = 0
KSC1 142249Z 33002KT 36/17 A3002 RMK A01 T03570169  RH  033%=      5-min Rain = 0
KSC1 142250Z 02002KT 36/17 A3002 RMK A01 T03580169  RH  033%=      5-min Rain = 0
KSC1 142251Z 05003KT 36/17 A3002 RMK A01 T03590170  RH  033%=      5-min Rain = 0
KSC1 142252Z 05005KT 36/17 A3002 RMK A01 T03590170  RH  033%=      5-min Rain = 0
KSC1 142253Z 05008KT 36/17 A3002 RMK A01 T03590168  RH  032%=      5-min Rain = 0
KSC1 142254Z 05009KT 36/17 A3002 RMK A01 T03600167  RH  032%=      5-min Rain = 0
KSC1 142255Z 05005KT 36/17 A3002 RMK A01 T03590166  RH  032%=      5-min Rain = 0
KSC1 142256Z 04005KT 36/17 A3002 RMK A01 T03580166  RH  032%=      5-min Rain = 0
KSC1 142257Z 05005KT 36/17 A3002 RMK A01 T03570166  RH  032%=      5-min Rain = 0
KSC1 142258Z 07004KT 36/17 A3002 RMK A01 T03570166  RH  032%=      5-min Rain = 0
KSC1 142259Z 07006KT 36/17 A3002 RMK A01 T03570167  RH  033%=      5-min Rain = 0
KSC1 142300Z 08005KT 36/17 A3002 RMK A01 T03570168  RH  033%=      5-min Rain = 0
KSC1 142301Z 08008KT 36/17 A3002 RMK A01 T03570167  RH  033%=      5-min Rain = 0
KSC1 142302Z 08006KT 36/17 A3002 RMK A01 T03580167  RH  032%=      5-min Rain = 0
KSC1 142303Z 08003KT 36/17 A3002 RMK A01 T03570166  RH  032%=      5-min Rain = 0
KSC1 142304Z 07004KT 36/17 A3002 RMK A01 T03570167  RH  032%=      5-min Rain = 0
KSC1 142305Z 09003KT 36/17 A3002 RMK A01 T03560166  RH  032%=      5-min Rain = 0
KSC1 142306Z 09003KT 36/17 A3002 RMK A01 T03570167  RH  033%=      5-min Rain = 0
KSC1 142307Z 15003KT 36/17 A3002 RMK A01 T03570167  RH  032%=      5-min Rain = 0
KSC1 142308Z 16003KT 36/17 A3002 RMK A01 T03560167  RH  033%=      5-min Rain = 0
KSC1 142309Z 16001KT 36/17 A3002 RMK A01 T03560167  RH  033%=      5-min Rain = 0
KSC1 142310Z 05004KT 36/17 A3002 RMK A01 T03570168  RH  033%=      5-min Rain = 0
KSC1 142311Z 07006KT 36/17 A3002 RMK A01 T03590171  RH  033%=      5-min Rain = 0
KSC1 142312Z 05007KT 36/17 A3002 RMK A01 T03600171  RH  033%=      5-min Rain = 0
KSC1 142313Z 06007KT 36/17 A3002 RMK A01 T03610171  RH  033%=      5-min Rain = 0
KSC1 142314Z 05005KT 36/17 A3002 RMK A01 T03620169  RH  032%=      5-min Rain = 0
KSC1 142315Z 06008KT 36/17 A3002 RMK A01 T03610169  RH  032%=      5-min Rain = 0
KSC1 142316Z 06008KT 36/17 A3002 RMK A01 T03610170  RH  032%=      5-min Rain = 0
KSC1 142317Z 05007KT 36/17 A3002 RMK A01 T03610171  RH  033%=      5-min Rain = 0
KSC1 142318Z 06007KT 36/17 A3002 RMK A01 T03620172  RH  033%=      5-min Rain = 0
KSC1 142319Z 06006KT 36/17 A3002 RMK A01 T03630172  RH  033%=      5-min Rain = 0
KSC1 142320Z 06008KT 36/17 A3002 RMK A01 T03630172  RH  032%=      5-min Rain = 0
KSC1 142321Z 06008KT 36/17 A3002 RMK A01 T03640172  RH  032%=      5-min Rain = 0
KSC1 142322Z 05008KT 36/17 A3002 RMK A01 T03640172  RH  032%=      5-min Rain = 0
KSC1 142323Z 07005KT 36/17 A3002 RMK A01 T03640172  RH  032%=      5-min Rain = 0
KSC1 142324Z 06005KT 36/17 A3002 RMK A01 T03640172  RH  032%=      5-min Rain = 0
KSC1 142325Z 09004KT 36/17 A3001 RMK A01 T03640171  RH  032%=      5-min Rain = 0
KSC1 142326Z 09004KT 36/17 A3001 RMK A01 T03640172  RH  032%=      5-min Rain = 0
KSC1 142327Z 07006KT 36/17 A3001 RMK A01 T03640171  RH  032%=      5-min Rain = 0
KSC1 142328Z 07006KT 36/17 A3001 RMK A01 T03640171  RH  032%=      5-min Rain = 0
KSC1 142329Z 07007KT 36/17 A3001 RMK A01 T03640171  RH  032%=      5-min Rain = 0
KSC1 142330Z 07006KT 36/17 A3001 RMK A01 T03630171  RH  032%=      5-min Rain = 0
KSC1 142331Z 08005KT 36/17 A3001 RMK A01 T03630172  RH  032%=      5-min Rain = 0
KSC1 142332Z 09007KT 36/17 A3001 RMK A01 T03640173  RH  032%=      5-min Rain = 0
KSC1 142333Z 08005KT 36/17 A3001 RMK A01 T03640173  RH  032%=      5-min Rain = 0
KSC1 142334Z 08007KT 36/17 A3001 RMK A01 T03640173  RH  033%=      5-min Rain = 0
KSC1 142335Z 06007KT 36/17 A3001 RMK A01 T03630173  RH  033%=      5-min Rain = 0
KSC1 142336Z 07005KT 36/17 A3001 RMK A01 T03620173  RH  033%=      5-min Rain = 0
KSC1 142337Z 09002KT 36/17 A3001 RMK A01 T03610173  RH  033%=      5-min Rain = 0
KSC1 142338Z 08005KT 36/17 A3001 RMK A01 T03600173  RH  033%=      5-min Rain = 0
KSC1 142339Z 07005KT 36/17 A3001 RMK A01 T03600173  RH  033%=      5-min Rain = 0
KSC1 142340Z 08005KT 36/17 A3001 RMK A01 T03590172  RH  033%=      5-min Rain = 0
KSC1 142341Z 10007KT 36/17 A3001 RMK A01 T03580172  RH  033%=      5-min Rain = 0
KSC1 142342Z 09005KT 36/17 A3001 RMK A01 T03590172  RH  033%=      5-min Rain = 0
KSC1 142343Z 09007KT 36/17 A3001 RMK A01 T03590171  RH  033%=      5-min Rain = 0
KSC1 142344Z 07006KT 36/17 A3001 RMK A01 T03580171  RH  033%=      5-min Rain = 0
KSC1 142345Z 05007KT 36/17 A3001 RMK A01 T03560173  RH  034%=      5-min Rain = 0
KSC1 142346Z 06008KT 36/18 A3001 RMK A01 T03550176  RH  035%=      5-min Rain = 0
KSC1 142347Z 09006KT 36/18 A3001 RMK A01 T03550175  RH  035%=      5-min Rain = 0
KSC1 142348Z 10007KT 36/17 A3001 RMK A01 T03550174  RH  034%=      5-min Rain = 0
KSC1 142349Z 10011KT 36/18 A3001 RMK A01 T03560175  RH  034%=      5-min Rain = 0
KSC1 142350Z 10008KT 36/18 A3001 RMK A01 T03560176  RH  035%=      5-min Rain = 0
KSC1 142351Z 09011KT 36/18 A3001 RMK A01 T03550176  RH  035%=      5-min Rain = 0
KSC1 142352Z 10009KT 36/18 A3001 RMK A01 T03550176  RH  035%=      5-min Rain = 0
KSC1 142353Z 10008KT 36/18 A3001 RMK A01 T03550176  RH  035%=      5-min Rain = 0
KSC1 142354Z 09011KT 35/18 A3001 RMK A01 T03540175  RH  035%=      5-min Rain = 0
KSC1 142355Z 08009KT 35/18 A3001 RMK A01 T03530175  RH  035%=      5-min Rain = 0
KSC1 142356Z 10008KT 35/17 A3001 RMK A01 T03520174  RH  035%=      5-min Rain = 0
KSC1 142357Z 09007KT 35/17 A3001 RMK A01 T03520174  RH  035%=      5-min Rain = 0
KSC1 142358Z 07007KT 35/17 A30 RMK A01 T03510174  RH  035%=      5-min Rain = 0
KSC1 142359Z 09007KT 35/17 A30 RMK A01 T03510174  RH  035%=      5-min Rain = 0
KSC1 150000Z 09006KT 35/17 A30 RMK A01 T03510174  RH  035%=      5-min Rain = 0
KSC1 150001Z 09007KT 35/17 A30 RMK A01 T03530174  RH  035%=      5-min Rain = 0
KSC1 150002Z 09006KT 35/17 A30 RMK A01 T03540174  RH  035%=      5-min Rain = 0
KSC1 150003Z 08006G11KT 36/18 A30 RMK A01 T03550175  RH  035%=      5-min Rain = 0
KSC1 150004Z 07010KT 36/18 A30 RMK A01 T03570175  RH  034%=      5-min Rain = 0
KSC1 150005Z 08007KT 36/17 A30 RMK A01 T03560174  RH  034%=      5-min Rain = 0
KSC1 150006Z 07007KT 36/17 A30 RMK A01 T03550174  RH  034%=      5-min Rain = 0
KSC1 150007Z 08009KT 35/17 A30 RMK A01 T03540174  RH  035%=      5-min Rain = 0
KSC1 150008Z 09008KT 35/17 A30 RMK A01 T03540173  RH  034%=      5-min Rain = 0
KSC1 150009Z 08005KT 35/17 A30 RMK A01 T03530172  RH  034%=      5-min Rain = 0
KSC1 150010Z 07006KT 35/17 A30 RMK A01 T03520173  RH  035%=      5-min Rain = 0
KSC1 150011Z 07007KT 35/17 A30 RMK A01 T03530173  RH  035%=      5-min Rain = 0
KSC1 150012Z 08005KT 35/17 A30 RMK A01 T03530173  RH  035%=      5-min Rain = 0
KSC1 150013Z 08006KT 35/17 A30 RMK A01 T03520173  RH  035%=      5-min Rain = 0
KSC1 150014Z 10005KT 35/17 A30 RMK A01 T03530174  RH  035%=      5-min Rain = 0
KSC1 150015Z 10008KT 35/17 A30 RMK A01 T03530173  RH  034%=      5-min Rain = 0
KSC1 150016Z 10009KT 35/17 A30 RMK A01 T03530173  RH  034%=      5-min Rain = 0
KSC1 150017Z 11007KT 35/17 A30 RMK A01 T03520172  RH  034%=      5-min Rain = 0
KSC1 150018Z 08007KT 35/17 A30 RMK A01 T03510172  RH  035%=      5-min Rain = 0
KSC1 150019Z 09006KT 35/17 A30 RMK A01 T03510172  RH  035%=      5-min Rain = 0
KSC1 150020Z 10008KT 35/17 A3001 RMK A01 T03500172  RH  035%=      5-min Rain = 0
KSC1 150021Z 12010KT 35/17 A3001 RMK A01 T03500173  RH  035%=      5-min Rain = 0
KSC1 150022Z 14014G19KT 35/18 A3001 RMK A01 T03490177  RH  036%=      5-min Rain = 0
KSC1 150023Z 17012G17KT 34/18 A3001 RMK A01 T03420180  RH  038%=      5-min Rain = 0
KSC1 150024Z 16012KT 34/18 A3001 RMK A01 T03350181  RH  040%=      5-min Rain = 0
KSC1 150025Z 17012KT 33/18 A3001 RMK A01 T03310181  RH  041%=      5-min Rain = 0
KSC1 150026Z 18012KT 33/18 A3001 RMK A01 T03280182  RH  042%=      5-min Rain = 0
KSC1 150027Z 17012KT 33/18 A3001 RMK A01 T03260183  RH  043%=      5-min Rain = 0
KSC1 150028Z 17011KT 33/18 A3001 RMK A01 T03250183  RH  043%=      5-min Rain = 0
KSC1 150029Z 18012KT 32/18 A3001 RMK A01 T03240183  RH  043%=      5-min Rain = 0
KSC1 150030Z 17011KT 32/18 A3001 RMK A01 T03240183  RH  043%=      5-min Rain = 0
KSC1 150031Z 19010KT 32/18 A3001 RMK A01 T03230183  RH  043%=      5-min Rain = 0
KSC1 150032Z 18013G18KT 32/18 A3001 RMK A01 T03220183  RH  044%=      5-min Rain = 0
KSC1 150033Z 18011KT 32/18 A3001 RMK A01 T03210183  RH  044%=      5-min Rain = 0
KSC1 150034Z 19011KT 32/18 A3001 RMK A01 T03200183  RH  044%=      5-min Rain = 0
KSC1 150035Z 19008KT 32/18 A3001 RMK A01 T03200183  RH  044%=      5-min Rain = 0
KSC1 150036Z 18008KT 32/18 A3001 RMK A01 T03190182  RH  044%=      5-min Rain = 0
KSC1 150037Z 18013KT 32/18 A3001 RMK A01 T03190183  RH  044%=      5-min Rain = 0
KSC1 150038Z 18012G17KT 32/18 A3001 RMK A01 T03190182  RH  044%=      5-min Rain = 0
KSC1 150039Z 19009KT 32/18 A3001 RMK A01 T03180182  RH  044%=      5-min Rain = 0
KSC1 150040Z 18010KT 32/18 A3001 RMK A01 T03180182  RH  045%=      5-min Rain = 0
KSC1 150041Z 18008KT 32/18 A3001 RMK A01 T03180183  RH  045%=      5-min Rain = 0
KSC1 150042Z 18010G15KT 32/18 A3001 RMK A01 T03170183  RH  045%=      5-min Rain = 0
KSC1 150043Z 18012KT 32/18 A3001 RMK A01 T03170183  RH  045%=      5-min Rain = 0
KSC1 150044Z 18013KT 32/18 A3001 RMK A01 T03170183  RH  045%=      5-min Rain = 0
KSC1 150045Z 18013KT 32/18 A3001 RMK A01 T03160183  RH  045%=      5-min Rain = 0
KSC1 150046Z 18011KT 32/18 A3002 RMK A01 T03160183  RH  045%=      5-min Rain = 0
KSC1 150047Z 18011KT 32/18 A3002 RMK A01 T03160183  RH  045%=      5-min Rain = 0
KSC1 150048Z 18012KT 32/18 A3002 RMK A01 T03150183  RH  045%=      5-min Rain = 0
KSC1 150049Z 18014KT 32/18 A3002 RMK A01 T03150183  RH  045%=      5-min Rain = 0
KSC1 150050Z 18012KT 32/18 A3002 RMK A01 T03150183  RH  046%=      5-min Rain = 0
KSC1 150051Z 18013KT 32/18 A3002 RMK A01 T03150183  RH  046%=      5-min Rain = 0
KSC1 150052Z 18012KT 31/18 A3002 RMK A01 T03140183  RH  046%=      5-min Rain = 0
KSC1 150053Z 18009G14KT 31/18 A3002 RMK A01 T03140183  RH  046%=      5-min Rain = 0
KSC1 150054Z 18009KT 31/18 A3002 RMK A01 T03140183  RH  046%=      5-min Rain = 0
KSC1 150055Z 18009KT 31/18 A3002 RMK A01 T03140183  RH  046%=      5-min Rain = 0
KSC1 150056Z 19009KT 31/18 A3002 RMK A01 T03140183  RH  046%=      5-min Rain = 0
KSC1 150057Z 18010KT 31/18 A3002 RMK A01 T03140183  RH  046%=      5-min Rain = 0
KSC1 150058Z 18010G15KT 31/18 A3002 RMK A01 T03140183  RH  046%=      5-min Rain = 0
KSC1 150059Z 18011KT 31/18 A3002 RMK A01 T03140183  RH  046%=      5-min Rain = 0
KSC1 150100Z 18010KT 31/18 A3002 RMK A01 T03130183  RH  046%=      5-min Rain = 0
KSC1 150101Z 18010KT 31/18 A3002 RMK A01 T03140183  RH  046%=      5-min Rain = 0
KSC1 150102Z 18007KT 31/18 A3002 RMK A01 T03130183  RH  046%=      5-min Rain = 0
KSC1 150103Z 18010G15KT 31/18 A3002 RMK A01 T03130183  RH  046%=      5-min Rain = 0
KSC1 150104Z 18010KT 31/18 A3002 RMK A01 T03130183  RH  046%=      5-min Rain = 0
KSC1 150105Z 18008KT 31/18 A3003 RMK A01 T03130183  RH  046%=      5-min Rain = 0
KSC1 150106Z 19006KT 31/18 A3003 RMK A01 T03130183  RH  046%=      5-min Rain = 0
KSC1 150107Z 19005KT 31/18 A3003 RMK A01 T03130183  RH  046%=      5-min Rain = 0
KSC1 150108Z 19005KT 31/18 A3003 RMK A01 T03120183  RH  046%=      5-min Rain = 0
KSC1 150109Z 20008G13KT 31/18 A3003 RMK A01 T03120183  RH  046%=      5-min Rain = 0
KSC1 150110Z 20010KT 31/18 A3003 RMK A01 T03120182  RH  046%=      5-min Rain = 0
KSC1 150111Z 20008KT 31/18 A3003 RMK A01 T03120182  RH  046%=      5-min Rain = 0
KSC1 150112Z 20009KT 31/18 A3003 RMK A01 T03120182  RH  046%=      5-min Rain = 0
KSC1 150113Z 19009KT 31/18 A3003 RMK A01 T03120182  RH  046%=      5-min Rain = 0
KSC1 150114Z 19009KT 31/18 A3003 RMK A01 T03110181  RH  046%=      5-min Rain = 0
KSC1 150115Z 19009KT 31/18 A3003 RMK A01 T03110181  RH  046%=      5-min Rain = 0
KSC1 150116Z 19007G12KT 31/18 A3003 RMK A01 T03110181  RH  046%=      5-min Rain = 0
KSC1 150117Z 18009KT 31/18 A3003 RMK A01 T03110180  RH  046%=      5-min Rain = 0
KSC1 150118Z 19008KT 31/18 A3003 RMK A01 T03110180  RH  046%=      5-min Rain = 0
KSC1 150119Z 18009KT 31/18 A3003 RMK A01 T03100180  RH  046%=      5-min Rain = 0
KSC1 150120Z 18008KT 31/18 A3003 RMK A01 T03100180  RH  046%=      5-min Rain = 0
KSC1 150121Z 19008KT 31/18 A3003 RMK A01 T03100180  RH  046%=      5-min Rain = 0
KSC1 150122Z 19007KT 31/18 A3003 RMK A01 T03090180  RH  046%=      5-min Rain = 0
KSC1 150123Z 19007KT 31/18 A3003 RMK A01 T03090180  RH  046%=      5-min Rain = 0
KSC1 150124Z 19006KT 31/18 A3003 RMK A01 T03090180  RH  046%=      5-min Rain = 0
KSC1 150125Z 19007KT 31/18 A3003 RMK A01 T03080180  RH  046%=      5-min Rain = 0
KSC1 150126Z 19006KT 31/18 A3003 RMK A01 T03080180  RH  047%=      5-min Rain = 0
KSC1 150127Z 20006KT 31/18 A3003 RMK A01 T03080180  RH  047%=      5-min Rain = 0
KSC1 150128Z 20007KT 31/18 A3003 RMK A01 T03070181  RH  047%=      5-min Rain = 0
KSC1 150129Z 19007KT 31/18 A3003 RMK A01 T03070181  RH  047%=      5-min Rain = 0
KSC1 150130Z 20006KT 31/18 A3004 RMK A01 T03070181  RH  047%=      5-min Rain = 0
KSC1 150131Z 19008KT 31/18 A3004 RMK A01 T03070181  RH  047%=      5-min Rain = 0
KSC1 150132Z 20007KT 31/18 A3004 RMK A01 T03070182  RH  047%=      5-min Rain = 0
KSC1 150133Z 20006KT 31/18 A3004 RMK A01 T03060181  RH  047%=      5-min Rain = 0
KSC1 150134Z 20007KT 31/18 A3004 RMK A01 T03070181  RH  047%=      5-min Rain = 0
KSC1 150135Z 20006KT 31/18 A3004 RMK A01 T03060181  RH  047%=      5-min Rain = 0
KSC1 150136Z 20006KT 31/18 A3004 RMK A01 T03060181  RH  047%=      5-min Rain = 0
KSC1 150137Z 20005KT 31/18 A3004 RMK A01 T03050181  RH  047%=      5-min Rain = 0
KSC1 150138Z 21007KT 31/18 A3004 RMK A01 T03050181  RH  048%=      5-min Rain = 0
KSC1 150139Z 21006KT 31/18 A3004 RMK A01 T03050181  RH  048%=      5-min Rain = 0
KSC1 150140Z 21004KT 31/18 A3004 RMK A01 T03050181  RH  048%=      5-min Rain = 0
KSC1 150141Z 22003KT 30/18 A3004 RMK A01 T03040181  RH  048%=      5-min Rain = 0
KSC1 150142Z 21006KT 30/18 A3004 RMK A01 T03040181  RH  048%=      5-min Rain = 0
KSC1 150143Z 20007KT 30/18 A3004 RMK A01 T03040182  RH  048%=      5-min Rain = 0
KSC1 150144Z 20006KT 30/18 A3004 RMK A01 T03040182  RH  048%=      5-min Rain = 0
KSC1 150145Z 20007KT 30/18 A3004 RMK A01 T03040182  RH  048%=      5-min Rain = 0
KSC1 150146Z 20004KT 30/18 A3004 RMK A01 T03040182  RH  048%=      5-min Rain = 0
KSC1 150147Z 21006KT 30/18 A3004 RMK A01 T03030182  RH  048%=      5-min Rain = 0
KSC1 150148Z 21005KT 30/18 A3004 RMK A01 T03030182  RH  048%=      5-min Rain = 0
KSC1 150149Z 22006KT 30/18 A3005 RMK A01 T03030182  RH  048%=      5-min Rain = 0
KSC1 150150Z 21003KT 30/18 A3005 RMK A01 T03030182  RH  048%=      5-min Rain = 0
KSC1 150151Z 21005KT 30/18 A3005 RMK A01 T03020182  RH  048%=      5-min Rain = 0
KSC1 150152Z 21006KT 30/18 A3005 RMK A01 T03020181  RH  048%=      5-min Rain = 0
KSC1 150153Z 21006KT 30/18 A3005 RMK A01 T03020181  RH  048%=      5-min Rain = 0
KSC1 150154Z 20006KT 30/18 A3005 RMK A01 T03020181  RH  048%=      5-min Rain = 0
KSC1 150155Z 20005KT 30/18 A3005 RMK A01 T03010181  RH  048%=      5-min Rain = 0
KSC1 150156Z 20005KT 30/18 A3005 RMK A01 T03010181  RH  049%=      5-min Rain = 0
KSC1 150157Z 20005KT 30/18 A3005 RMK A01 T03000180  RH  049%=      5-min Rain = 0
KSC1 150158Z 20005KT 30/18 A3005 RMK A01 T03000181  RH  049%=      5-min Rain = 0
KSC1 150159Z 19004KT 30/18 A3005 RMK A01 T03000181  RH  049%=      5-min Rain = 0
KSC1 150200Z 20003KT 30/18 A3005 RMK A01 T03000181  RH  049%=      5-min Rain = 0
KSC1 150201Z 20004KT 30/18 A3005 RMK A01 T02990180  RH  049%=      5-min Rain = 0
KSC1 150202Z 20004KT 30/18 A3005 RMK A01 T02990180  RH  049%=      5-min Rain = 0
KSC1 150203Z 20003KT 30/18 A3005 RMK A01 T02990180  RH  049%=      5-min Rain = 0
KSC1 150204Z 21003KT 30/18 A3005 RMK A01 T02980181  RH  049%=      5-min Rain = 0
KSC1 150205Z 21003KT 30/18 A3005 RMK A01 T02980180  RH  049%=      5-min Rain = 0
KSC1 150206Z 21003KT 30/18 A3006 RMK A01 T02970180  RH  049%=      5-min Rain = 0
KSC1 150207Z 21003KT 30/18 A3006 RMK A01 T02970180  RH  050%=      5-min Rain = 0
KSC1 150208Z 21003KT 30/18 A3006 RMK A01 T02960180  RH  050%=      5-min Rain = 0
KSC1 150209Z 21003KT 30/18 A3006 RMK A01 T02960181  RH  050%=      5-min Rain = 0
KSC1 150210Z 22002KT 30/18 A3006 RMK A01 T02950180  RH  050%=      5-min Rain = 0
KSC1 150211Z 22002KT 30/18 A3006 RMK A01 T02960181  RH  050%=      5-min Rain = 0
KSC1 150212Z 23002KT 30/18 A3006 RMK A01 T02950180  RH  050%=      5-min Rain = 0
KSC1 150213Z 25002KT 30/18 A3006 RMK A01 T02950181  RH  050%=      5-min Rain = 0
KSC1 150214Z 25003KT 30/18 A3006 RMK A01 T02950180  RH  050%=      5-min Rain = 0
KSC1 150215Z 24003KT 30/18 A3006 RMK A01 T02950181  RH  050%=      5-min Rain = 0
KSC1 150216Z 24003KT 29/18 A3006 RMK A01 T02940181  RH  050%=      5-min Rain = 0
KSC1 150217Z 24002KT 29/18 A3006 RMK A01 T02940181  RH  050%=      5-min Rain = 0
KSC1 150218Z 25002KT 29/18 A3006 RMK A01 T02930180  RH  050%=      5-min Rain = 0
KSC1 150219Z 26002KT 29/18 A3007 RMK A01 T02930180  RH  051%=      5-min Rain = 0
KSC1 150220Z 27001KT 29/18 A3007 RMK A01 T02930181  RH  051%=      5-min Rain = 0
KSC1 150221Z 27001KT 29/18 A3007 RMK A01 T02930181  RH  051%=      5-min Rain = 0
KSC1 150222Z 27001KT 29/18 A3007 RMK A01 T02930181  RH  051%=      5-min Rain = 0
KSC1 150223Z 27001KT 29/18 A3007 RMK A01 T02930181  RH  051%=      5-min Rain = 0
KSC1 150224Z 26001KT 29/18 A3007 RMK A01 T02930181  RH  051%=      5-min Rain = 0
KSC1 150225Z 26002KT 29/18 A3007 RMK A01 T02930180  RH  051%=      5-min Rain = 0
KSC1 150226Z 27002KT 29/18 A3007 RMK A01 T02920180  RH  051%=      5-min Rain = 0
KSC1 150227Z 28002KT 29/18 A3007 RMK A01 T02920181  RH  051%=      5-min Rain = 0
KSC1 150228Z 30003KT 29/18 A3007 RMK A01 T02920181  RH  051%=      5-min Rain = 0
KSC1 150229Z 31003KT 29/18 A3007 RMK A01 T02920180  RH  051%=      5-min Rain = 0
KSC1 150230Z 30003KT 29/18 A3007 RMK A01 T02910180  RH  051%=      5-min Rain = 0
KSC1 150231Z 29002KT 29/18 A3007 RMK A01 T02910180  RH  051%=      5-min Rain = 0
KSC1 150232Z 29002KT 29/18 A3007 RMK A01 T02920180  RH  051%=      5-min Rain = 0
KSC1 150233Z 28002KT 29/18 A3007 RMK A01 T02910180  RH  051%=      5-min Rain = 0
KSC1 150234Z 27003KT 29/18 A3007 RMK A01 T02910180  RH  051%=      5-min Rain = 0
KSC1 150235Z 27003KT 29/18 A3007 RMK A01 T02910179  RH  051%=      5-min Rain = 0
KSC1 150236Z 27004KT 29/18 A3007 RMK A01 T02900180  RH  051%=      5-min Rain = 0
KSC1 150237Z 27004KT 29/18 A3007 RMK A01 T02900179  RH  051%=      5-min Rain = 0
KSC1 150238Z 27004KT 29/18 A3007 RMK A01 T02900180  RH  051%=      5-min Rain = 0
KSC1 150239Z 27005KT 29/18 A3008 RMK A01 T02900180  RH  051%=      5-min Rain = 0
KSC1 150240Z 27004KT 29/18 A3008 RMK A01 T02910180  RH  051%=      5-min Rain = 0
KSC1 150241Z 26004KT 29/18 A3008 RMK A01 T02910181  RH  051%=      5-min Rain = 0
KSC1 150242Z 27003KT 29/18 A3008 RMK A01 T02920180  RH  051%=      5-min Rain = 0
KSC1 150243Z 26004KT 29/18 A3008 RMK A01 T02920180  RH  051%=      5-min Rain = 0
KSC1 150244Z 26005KT 29/18 A3008 RMK A01 T02920181  RH  051%=      5-min Rain = 0
KSC1 150245Z 26004KT 29/18 A3008 RMK A01 T02920180  RH  051%=      5-min Rain = 0
KSC1 150246Z 26003KT 29/18 A3008 RMK A01 T02930181  RH  051%=      5-min Rain = 0
KSC1 150247Z 26003KT 29/18 A3008 RMK A01 T02930181  RH  051%=      5-min Rain = 0
KSC1 150248Z 26003KT 29/18 A3008 RMK A01 T02930181  RH  051%=      5-min Rain = 0
KSC1 150249Z 26004KT 29/18 A3008 RMK A01 T02930181  RH  051%=      5-min Rain = 0
KSC1 150250Z 27003KT 29/18 A3008 RMK A01 T02930181  RH  051%=      5-min Rain = 0
KSC1 150251Z 26002KT 29/18 A3008 RMK A01 T02930181  RH  051%=      5-min Rain = 0
KSC1 150252Z 26003KT 29/18 A3009 RMK A01 T02920180  RH  051%=      5-min Rain = 0
KSC1 150253Z 26003KT 29/18 A3009 RMK A01 T02920180  RH  051%=      5-min Rain = 0
KSC1 150254Z 26003KT 29/18 A3009 RMK A01 T02910180  RH  051%=      5-min Rain = 0
KSC1 150255Z 26003KT 29/18 A3009 RMK A01 T02910181  RH  051%=      5-min Rain = 0
KSC1 150256Z 26003KT 29/18 A3009 RMK A01 T02910181  RH  051%=      5-min Rain = 0
KSC1 150257Z 27002KT 29/18 A3009 RMK A01 T02910181  RH  051%=      5-min Rain = 0
KSC1 150258Z 27003KT 29/18 A3009 RMK A01 T02900180  RH  051%=      5-min Rain = 0
KSC1 150259Z 26002KT 29/18 A3009 RMK A01 T02910180  RH  051%=      5-min Rain = 0
KSC1 150300Z 26003KT 29/18 A3009 RMK A01 T02910180  RH  051%=      5-min Rain = 0
KSC1 150301Z 25002KT 29/18 A301 RMK A01 T02900180  RH  051%=      5-min Rain = 0
KSC1 150302Z 25002KT 29/18 A301 RMK A01 T02910180  RH  051%=      5-min Rain = 0
KSC1 150303Z 27001KT 29/18 A301 RMK A01 T02910180  RH  051%=      5-min Rain = 0
KSC1 150304Z 27000KT 29/18 A301 RMK A01 T02900180  RH  051%=      5-min Rain = 0
KSC1 150305Z 27000KT 29/18 A301 RMK A01 T02910180  RH  051%=      5-min Rain = 0
KSC1 150306Z 07001KT 29/18 A301 RMK A01 T02910180  RH  051%=      5-min Rain = 0
KSC1 150307Z 08002KT 29/18 A301 RMK A01 T02900180  RH  051%=      5-min Rain = 0
KSC1 150308Z 08003KT 29/18 A3011 RMK A01 T02900180  RH  051%=      5-min Rain = 0
KSC1 150309Z 08005KT 29/18 A3011 RMK A01 T02900180  RH  051%=      5-min Rain = 0
KSC1 150310Z 08006KT 29/18 A3011 RMK A01 T02900181  RH  052%=      5-min Rain = 0
KSC1 150311Z 08007KT 29/18 A3011 RMK A01 T02900181  RH  052%=      5-min Rain = 0
KSC1 150312Z 08007KT 29/18 A3011 RMK A01 T02900181  RH  052%=      5-min Rain = 0
KSC1 150313Z 09007KT 29/18 A3011 RMK A01 T02900181  RH  052%=      5-min Rain = 0
KSC1 150314Z 09008KT 29/18 A3011 RMK A01 T02900181  RH  052%=      5-min Rain = 0
KSC1 150315Z 09008KT 29/18 A3011 RMK A01 T02900182  RH  052%=      5-min Rain = 0
KSC1 150316Z 07007KT 29/18 A3011 RMK A01 T02910182  RH  052%=      5-min Rain = 0
KSC1 150317Z 08008KT 29/18 A3012 RMK A01 T02920182  RH  051%=      5-min Rain = 0
KSC1 150318Z 09009KT 29/18 A3012 RMK A01 T02930182  RH  051%=      5-min Rain = 0
KSC1 150319Z 09007KT 29/18 A3012 RMK A01 T02930183  RH  051%=      5-min Rain = 0
KSC1 150320Z 09006KT 29/18 A3012 RMK A01 T02930183  RH  051%=      5-min Rain = 0
KSC1 150321Z 08008KT 29/18 A3012 RMK A01 T02930183  RH  051%=      5-min Rain = 0
KSC1 150322Z 08009KT 29/18 A3012 RMK A01 T02930184  RH  052%=      5-min Rain = 0
KSC1 150323Z 09007KT 29/18 A3012 RMK A01 T02910184  RH  052%=      5-min Rain = 0
KSC1 150324Z 09007KT 29/18 A3012 RMK A01 T02890184  RH  053%=      5-min Rain = 0
KSC1 150325Z 08009KT 29/19 A3012 RMK A01 T02870187  RH  055%=      5-min Rain = 0
KSC1 150326Z 08008KT 28/19 A3012 RMK A01 T02810189  RH  057%=      5-min Rain = 0
KSC1 150327Z 10006KT 28/19 A3011 RMK A01 T02760190  RH  060%=      5-min Rain = 0
KSC1 150328Z 10006KT 27/19 A3011 RMK A01 T02720190  RH  061%=      5-min Rain = 0
KSC1 150329Z 10006KT 27/19 A3011 RMK A01 T02700191  RH  062%=      5-min Rain = 0
KSC1 150330Z 11005KT 27/19 A3011 RMK A01 T02690191  RH  063%=      5-min Rain = 0
KSC1 150331Z 10004KT 27/19 A3011 RMK A01 T02670191  RH  063%=      5-min Rain = 0
KSC1 150332Z 10004KT 27/19 A3011 RMK A01 T02670192  RH  063%=      5-min Rain = 0
KSC1 150333Z 10005KT 27/19 A3011 RMK A01 T02660192  RH  064%=      5-min Rain = 0
KSC1 150334Z 10005KT 27/19 A3011 RMK A01 T02660192  RH  064%=      5-min Rain = 0
KSC1 150335Z 10005KT 27/19 A3011 RMK A01 T02660193  RH  064%=      5-min Rain = 0
KSC1 150336Z 11004KT 27/19 A3011 RMK A01 T02660193  RH  064%=      5-min Rain = 0
KSC1 150337Z 11004KT 27/19 A3011 RMK A01 T02660192  RH  064%=      5-min Rain = 0
KSC1 150338Z 12004KT 27/19 A3011 RMK A01 T02660192  RH  064%=      5-min Rain = 0
KSC1 150339Z 14004KT 27/19 A3011 RMK A01 T02670192  RH  064%=      5-min Rain = 0
KSC1 150340Z 14004KT 27/19 A3011 RMK A01 T02670193  RH  064%=      5-min Rain = 0
KSC1 150341Z 16002KT 27/19 A3011 RMK A01 T02680194  RH  064%=      5-min Rain = 0
KSC1 150342Z 18003KT 27/20 A3011 RMK A01 T02680195  RH  064%=      5-min Rain = 0
KSC1 150343Z 22002KT 27/20 A3011 RMK A01 T02680195  RH  064%=      5-min Rain = 0
KSC1 150344Z 22003KT 27/20 A3011 RMK A01 T02680195  RH  064%=      5-min Rain = 0
KSC1 150345Z 24002KT 27/20 A3011 RMK A01 T02670195  RH  064%=      5-min Rain = 0
KSC1 150346Z 24002KT 27/19 A3011 RMK A01 T02670194  RH  064%=      5-min Rain = 0
KSC1 150347Z 24003KT 27/19 A3011 RMK A01 T02670194  RH  064%=      5-min Rain = 0
KSC1 150348Z 24003KT 27/19 A3011 RMK A01 T02680194  RH  064%=      5-min Rain = 0
KSC1 150349Z 24003KT 27/19 A3011 RMK A01 T02670193  RH  064%=      5-min Rain = 0
KSC1 150350Z 24003KT 27/19 A3011 RMK A01 T02680193  RH  063%=      5-min Rain = 0
KSC1 150351Z 24003KT 27/19 A3011 RMK A01 T02680192  RH  063%=      5-min Rain = 0
KSC1 150352Z 23003KT 27/19 A3011 RMK A01 T02680193  RH  063%=      5-min Rain = 0
KSC1 150353Z 22003KT 27/19 A3011 RMK A01 T02680192  RH  063%=      5-min Rain = 0
KSC1 150354Z 20003KT 27/19 A3011 RMK A01 T02680192  RH  063%=      5-min Rain = 0
KSC1 150355Z 20003KT 27/19 A3011 RMK A01 T02690192  RH  063%=      5-min Rain = 0
KSC1 150356Z 19002KT 27/19 A3011 RMK A01 T02690192  RH  063%=      5-min Rain = 0
KSC1 150357Z 18002KT 27/19 A3011 RMK A01 T02680192  RH  063%=      5-min Rain = 0
KSC1 150358Z 11001KT 27/19 A3011 RMK A01 T02680192  RH  063%=      5-min Rain = 0
KSC1 150359Z 05003KT 27/19 A3011 RMK A01 T02670192  RH  063%=      5-min Rain = 0
KSC1 150400Z 03003KT 27/19 A3011 RMK A01 T02670192  RH  064%=      5-min Rain = 0
KSC1 150401Z 02003KT 27/19 A3011 RMK A01 T02660192  RH  064%=      5-min Rain = 0
KSC1 150402Z 01003KT 27/19 A3011 RMK A01 T02650192  RH  064%=      5-min Rain = 0
KSC1 150403Z 02003KT 27/19 A3011 RMK A01 T02650192  RH  064%=      5-min Rain = 0
KSC1 150404Z 32002KT 27/19 A3011 RMK A01 T02650192  RH  064%=      5-min Rain = 0
KSC1 150405Z 25002KT 27/19 A3011 RMK A01 T02650191  RH  064%=      5-min Rain = 0
KSC1 150406Z 24002KT 27/19 A301 RMK A01 T02650190  RH  063%=      5-min Rain = 0
KSC1 150407Z 25001KT 27/19 A301 RMK A01 T02670191  RH  063%=      5-min Rain = 0
KSC1 150408Z 20001KT 27/19 A301 RMK A01 T02680191  RH  063%=      5-min Rain = 0
KSC1 150409Z 13000KT 27/19 A301 RMK A01 T02680191  RH  062%=      5-min Rain = 0
KSC1 150410Z 09001KT 27/19 A301 RMK A01 T02680190  RH  062%=      5-min Rain = 0
KSC1 150411Z 08002KT 27/19 A301 RMK A01 T02680191  RH  063%=      5-min Rain = 0
KSC1 150412Z 09003KT 27/19 A301 RMK A01 T02670191  RH  063%=      5-min Rain = 0
KSC1 150413Z 10002KT 27/19 A301 RMK A01 T02660192  RH  064%=      5-min Rain = 0
KSC1 150414Z 12002KT 27/19 A301 RMK A01 T02650192  RH  064%=      5-min Rain = 0
KSC1 150415Z 14001KT 27/19 A301 RMK A01 T02650192  RH  064%=      5-min Rain = 0
KSC1 150416Z 18002KT 26/19 A301 RMK A01 T02640192  RH  064%=      5-min Rain = 0
KSC1 150417Z 20002KT 26/19 A301 RMK A01 T02640192  RH  065%=      5-min Rain = 0
KSC1 150418Z 21003KT 26/19 A301 RMK A01 T02640192  RH  064%=      5-min Rain = 0
KSC1 150419Z 21002KT 27/19 A301 RMK A01 T02660192  RH  064%=      5-min Rain = 0
KSC1 150420Z 22002KT 27/19 A3011 RMK A01 T02660192  RH  064%=      5-min Rain = 0
KSC1 150421Z 23002KT 27/19 A3011 RMK A01 T02670192  RH  063%=      5-min Rain = 0
KSC1 150422Z 23002KT 27/19 A3011 RMK A01 T02670192  RH  063%=      5-min Rain = 0
KSC1 150423Z 26002KT 27/19 A3011 RMK A01 T02670192  RH  063%=      5-min Rain = 0
KSC1 150424Z 26002KT 27/19 A3011 RMK A01 T02670192  RH  063%=      5-min Rain = 0
KSC1 150425Z 26002KT 27/19 A3011 RMK A01 T02670192  RH  063%=      5-min Rain = 0
KSC1 150426Z 25002KT 27/19 A3011 RMK A01 T02670191  RH  063%=      5-min Rain = 0
KSC1 150427Z 24002KT 27/19 A301 RMK A01 T02670191  RH  063%=      5-min Rain = 0
KSC1 150428Z 23003KT 27/19 A301 RMK A01 T02670191  RH  063%=      5-min Rain = 0
KSC1 150429Z 23003KT 27/19 A301 RMK A01 T02670191  RH  063%=      5-min Rain = 0
KSC1 150430Z 23003KT 27/19 A301 RMK A01 T02670191  RH  063%=      5-min Rain = 0
KSC1 150431Z 23003KT 27/19 A301 RMK A01 T02670191  RH  063%=      5-min Rain = 0
KSC1 150432Z 23003KT 27/19 A301 RMK A01 T02680191  RH  063%=      5-min Rain = 0
KSC1 150433Z 23003KT 27/19 A3011 RMK A01 T02680191  RH  063%=      5-min Rain = 0
KSC1 150434Z 22003KT 27/19 A3011 RMK A01 T02680191  RH  063%=      5-min Rain = 0
KSC1 150435Z 22003KT 27/19 A3011 RMK A01 T02680191  RH  063%=      5-min Rain = 0
KSC1 150436Z 22003KT 27/19 A3011 RMK A01 T02680191  RH  063%=      5-min Rain = 0
KSC1 150437Z 21003KT 27/19 A3011 RMK A01 T02680190  RH  062%=      5-min Rain = 0
KSC1 150438Z 20002KT 27/19 A3011 RMK A01 T02680191  RH  063%=      5-min Rain = 0
KSC1 150439Z 19002KT 27/19 A3011 RMK A01 T02680190  RH  062%=      5-min Rain = 0
KSC1 150440Z 17001KT 27/19 A301 RMK A01 T02680189  RH  062%=      5-min Rain = 0
KSC1 150441Z 15002KT 27/19 A301 RMK A01 T02660188  RH  062%=      5-min Rain = 0
KSC1 150442Z 11002KT 26/19 A301 RMK A01 T02640188  RH  063%=      5-min Rain = 0
KSC1 150443Z 11002KT 26/19 A301 RMK A01 T02620189  RH  064%=      5-min Rain = 0
KSC1 150444Z 13002KT 26/19 A301 RMK A01 T02610190  RH  065%=      5-min Rain = 0
KSC1 150445Z 12001KT 26/19 A301 RMK A01 T02610189  RH  065%=      5-min Rain = 0
KSC1 150446Z 11002KT 26/19 A301 RMK A01 T02600189  RH  065%=      5-min Rain = 0
KSC1 150447Z 08002KT 26/19 A301 RMK A01 T02600189  RH  065%=      5-min Rain = 0
KSC1 150448Z 07003KT 26/19 A301 RMK A01 T02590189  RH  065%=      5-min Rain = 0
KSC1 150449Z 07003KT 26/19 A301 RMK A01 T02590189  RH  066%=      5-min Rain = 0
KSC1 150450Z 06003KT 26/19 A301 RMK A01 T02580190  RH  066%=      5-min Rain = 0
KSC1 150451Z 06002KT 26/19 A301 RMK A01 T02570191  RH  067%=      5-min Rain = 0
KSC1 150452Z 07001KT 26/19 A301 RMK A01 T02570192  RH  067%=      5-min Rain = 0
KSC1 150453Z 00000KT 26/19 A301 RMK A01 T02570192  RH  067%=      5-min Rain = 0
KSC1 150454Z 00000KT 26/19 A301 RMK A01 T02570192  RH  068%=      5-min Rain = 0
KSC1 150455Z 00000KT 26/19 A301 RMK A01 T02560192  RH  067%=      5-min Rain = 0
KSC1 150456Z 00000KT 26/19 A301 RMK A01 T02560191  RH  067%=      5-min Rain = 0
KSC1 150457Z 00000KT 26/19 A301 RMK A01 T02560190  RH  067%=      5-min Rain = 0
KSC1 150458Z 07001KT 26/19 A301 RMK A01 T02550191  RH  068%=      5-min Rain = 0
KSC1 150459Z 07001KT 26/19 A301 RMK A01 T02550190  RH  067%=      5-min Rain = 0

Page generated in 0.1474 seconds.